TAP225V LPPT-KMIA
Flight info
| Callsign | TAP225V |
|---|---|
| Flight time | 9h 2m |
| Altitude | 36000 |
| Route | ELNUB DCT GUNTI/M082F360 DCT 3930N02000W 3730N03000W 35N040W/M082F380 3330N05000W 33N060W DCT NUMBR DCT 3233N06142W DCT BALTN/M082F400 M329 GRATX/N0468F400 M329 CLETT DCT FIROL BNFSH3 |
| Aircraft | A339/H-SADE1E2E3GHIJ3J5M1P2RWXY/LB2D1 |
Departure
| Time | 2026-05-05 13:06 |
|---|---|
| Airport | Lisbon Humberto Delgado Airport (LPPT) |
Arrival
| Time | 2026-05-05 22:08 |
|---|---|
| Airport | Miami International Airport (KMIA) |
| Time | Latitude | Longitude | Altitude | Speed | Heading |
|---|---|---|---|---|---|
| 2026-05-05 12:38 | 38.77548 | -9.13180 | 389 ft | 0 kts | 77° |
| 2026-05-05 12:56 | 38.77545 | -9.13193 | 389 ft | 2 kts | 77° |
| 2026-05-05 12:56 | 38.77542 | -9.13212 | 389 ft | 2 kts | 77° |
| 2026-05-05 12:56 | 38.77538 | -9.13231 | 389 ft | 2 kts | 77° |
| 2026-05-05 12:56 | 38.77535 | -9.13250 | 389 ft | 2 kts | 77° |
| 2026-05-05 12:57 | 38.77531 | -9.13269 | 389 ft | 2 kts | 84° |
| 2026-05-05 12:57 | 38.77533 | -9.13288 | 389 ft | 2 kts | 116° |
| 2026-05-05 12:57 | 38.77542 | -9.13303 | 389 ft | 2 kts | 140° |
| 2026-05-05 12:57 | 38.77554 | -9.13313 | 389 ft | 1 kts | 164° |
| 2026-05-05 12:58 | 38.77560 | -9.13314 | 389 ft | 1 kts | 168° |
| 2026-05-05 12:58 | 38.77561 | -9.13315 | 389 ft | 0 kts | 168° |
| 2026-05-05 13:00 | 38.77560 | -9.13314 | 389 ft | 0 kts | 168° |
| 2026-05-05 13:00 | 38.77549 | -9.13312 | 389 ft | 2 kts | 168° |
| 2026-05-05 13:01 | 38.77366 | -9.13265 | 389 ft | 11 kts | 185° |
| 2026-05-05 13:01 | 38.77329 | -9.13312 | 389 ft | 8 kts | 250° |
| 2026-05-05 13:01 | 38.77314 | -9.13392 | 389 ft | 10 kts | 258° |
| 2026-05-05 13:01 | 38.77294 | -9.13511 | 389 ft | 16 kts | 258° |
| 2026-05-05 13:02 | 38.77271 | -9.13652 | 389 ft | 16 kts | 257° |
| 2026-05-05 13:02 | 38.77246 | -9.13795 | 389 ft | 15 kts | 252° |
| 2026-05-05 13:02 | 38.77173 | -9.13875 | 389 ft | 13 kts | 204° |
| 2026-05-05 13:02 | 38.77083 | -9.13925 | 389 ft | 14 kts | 202° |
| 2026-05-05 13:03 | 38.76992 | -9.13974 | 389 ft | 14 kts | 203° |
| 2026-05-05 13:03 | 38.76897 | -9.14025 | 389 ft | 14 kts | 202° |
| 2026-05-05 13:03 | 38.76803 | -9.14076 | 389 ft | 14 kts | 203° |
| 2026-05-05 13:03 | 38.76708 | -9.14127 | 389 ft | 14 kts | 202° |
| 2026-05-05 13:04 | 38.76616 | -9.14178 | 389 ft | 12 kts | 213° |
| 2026-05-05 13:04 | 38.76600 | -9.14258 | 389 ft | 10 kts | 297° |
| 2026-05-05 13:04 | 38.76627 | -9.14337 | 389 ft | 9 kts | 295° |
| 2026-05-05 13:04 | 38.76681 | -9.14367 | 389 ft | 9 kts | 12° |
| 2026-05-05 13:05 | 38.76758 | -9.14328 | 389 ft | 23 kts | 22° |
| 2026-05-05 13:05 | 38.77110 | -9.14141 | 389 ft | 84 kts | 22° |
| 2026-05-05 13:05 | 38.77813 | -9.13766 | 389 ft | 135 kts | 22° |
| 2026-05-05 13:05 | 38.78831 | -9.13222 | 446 ft | 172 kts | 20° |
| 2026-05-05 13:06 | 38.79889 | -9.12585 | 948 ft | 172 kts | 29° |
| 2026-05-05 13:06 | 38.80911 | -9.11752 | 1463 ft | 176 kts | 29° |
| 2026-05-05 13:06 | 38.81949 | -9.10919 | 1989 ft | 177 kts | 26° |
| 2026-05-05 13:06 | 38.83015 | -9.10140 | 2431 ft | 182 kts | 26° |
| 2026-05-05 13:07 | 38.84164 | -9.09337 | 2759 ft | 193 kts | 25° |
| 2026-05-05 13:07 | 38.85398 | -9.08498 | 3058 ft | 207 kts | 25° |
| 2026-05-05 13:07 | 38.86717 | -9.07615 | 3372 ft | 222 kts | 25° |
| 2026-05-05 13:07 | 38.88130 | -9.06675 | 3724 ft | 236 kts | 25° |
| 2026-05-05 13:08 | 38.89708 | -9.05917 | 4055 ft | 249 kts | 8° |
| 2026-05-05 13:08 | 38.91437 | -9.05945 | 4526 ft | 255 kts | 350° |
| 2026-05-05 13:08 | 38.93195 | -9.06329 | 5209 ft | 256 kts | 349° |
| 2026-05-05 13:08 | 38.94932 | -9.06728 | 5845 ft | 258 kts | 349° |
| 2026-05-05 13:09 | 38.96711 | -9.07137 | 6466 ft | 260 kts | 349° |
| 2026-05-05 13:09 | 38.98478 | -9.07540 | 7080 ft | 261 kts | 349° |
| 2026-05-05 13:09 | 39.00209 | -9.08267 | 7670 ft | 264 kts | 328° |
| 2026-05-05 13:09 | 39.01514 | -9.09911 | 8259 ft | 268 kts | 303° |
| 2026-05-05 13:10 | 39.02152 | -9.12146 | 8850 ft | 275 kts | 280° |
| 2026-05-05 13:10 | 39.02272 | -9.14599 | 9465 ft | 277 kts | 277° |
| 2026-05-05 13:10 | 39.02370 | -9.17051 | 10055 ft | 278 kts | 277° |
| 2026-05-05 13:10 | 39.02478 | -9.19539 | 10548 ft | 284 kts | 277° |
| 2026-05-05 13:11 | 39.02595 | -9.22129 | 10809 ft | 298 kts | 277° |
| 2026-05-05 13:11 | 39.02719 | -9.24860 | 11060 ft | 312 kts | 276° |
| 2026-05-05 13:11 | 39.02846 | -9.27689 | 11414 ft | 322 kts | 276° |
| 2026-05-05 13:11 | 39.02974 | -9.30552 | 11981 ft | 325 kts | 276° |
| 2026-05-05 13:12 | 39.03101 | -9.33456 | 12611 ft | 326 kts | 276° |
| 2026-05-05 13:12 | 39.03228 | -9.36354 | 13212 ft | 327 kts | 276° |
| 2026-05-05 13:12 | 39.03354 | -9.39254 | 13818 ft | 329 kts | 276° |
| 2026-05-05 13:12 | 39.03479 | -9.42182 | 14381 ft | 331 kts | 276° |
| 2026-05-05 13:13 | 39.03608 | -9.45156 | 14931 ft | 334 kts | 276° |
| 2026-05-05 13:13 | 39.03737 | -9.48129 | 15493 ft | 337 kts | 276° |
| 2026-05-05 13:13 | 39.03866 | -9.51132 | 15987 ft | 341 kts | 276° |
| 2026-05-05 13:13 | 39.03997 | -9.54190 | 16546 ft | 344 kts | 276° |
| 2026-05-05 13:14 | 39.04127 | -9.57270 | 17096 ft | 347 kts | 276° |
| 2026-05-05 13:14 | 39.04256 | -9.60388 | 17612 ft | 350 kts | 276° |
| 2026-05-05 13:14 | 39.04386 | -9.63493 | 18125 ft | 352 kts | 276° |
| 2026-05-05 13:14 | 39.04517 | -9.66658 | 18644 ft | 355 kts | 275° |
| 2026-05-05 13:15 | 39.04647 | -9.69815 | 19161 ft | 358 kts | 275° |
| 2026-05-05 13:15 | 39.04779 | -9.73040 | 19714 ft | 359 kts | 275° |
| 2026-05-05 13:15 | 39.04910 | -9.76240 | 20236 ft | 361 kts | 275° |
| 2026-05-05 13:15 | 39.05039 | -9.79438 | 20738 ft | 363 kts | 275° |
| 2026-05-05 13:16 | 39.05170 | -9.82697 | 21228 ft | 366 kts | 275° |
| 2026-05-05 13:16 | 39.05299 | -9.85949 | 21693 ft | 368 kts | 275° |
| 2026-05-05 13:16 | 39.05428 | -9.89220 | 22147 ft | 370 kts | 275° |
| 2026-05-05 13:16 | 39.05559 | -9.92569 | 22605 ft | 372 kts | 275° |
| 2026-05-05 13:17 | 39.05690 | -9.95921 | 23043 ft | 374 kts | 275° |
| 2026-05-05 13:17 | 39.05819 | -9.99271 | 23461 ft | 376 kts | 274° |
| 2026-05-05 13:17 | 39.05948 | -10.02640 | 23862 ft | 379 kts | 274° |
| 2026-05-05 13:17 | 39.06078 | -10.06026 | 24268 ft | 381 kts | 274° |
| 2026-05-05 13:18 | 39.06206 | -10.09413 | 24662 ft | 383 kts | 274° |
| 2026-05-05 13:18 | 39.06335 | -10.12838 | 25058 ft | 385 kts | 274° |
| 2026-05-05 13:18 | 39.06463 | -10.16279 | 25456 ft | 386 kts | 274° |
| 2026-05-05 13:18 | 39.06589 | -10.19687 | 25831 ft | 388 kts | 274° |
| 2026-05-05 13:19 | 39.06717 | -10.23149 | 26203 ft | 390 kts | 274° |
| 2026-05-05 13:19 | 39.06844 | -10.26660 | 26572 ft | 391 kts | 274° |
| 2026-05-05 13:19 | 39.06967 | -10.30114 | 26954 ft | 392 kts | 274° |
| 2026-05-05 13:19 | 39.07091 | -10.33594 | 27316 ft | 393 kts | 274° |
| 2026-05-05 13:20 | 39.07217 | -10.37122 | 27664 ft | 394 kts | 274° |
| 2026-05-05 13:20 | 39.07340 | -10.40625 | 27983 ft | 396 kts | 274° |
| 2026-05-05 13:20 | 39.07463 | -10.44191 | 28302 ft | 398 kts | 274° |
| 2026-05-05 13:20 | 39.07585 | -10.47740 | 28618 ft | 399 kts | 273° |
| 2026-05-05 13:21 | 39.07706 | -10.51284 | 28926 ft | 400 kts | 274° |
| 2026-05-05 13:21 | 39.07827 | -10.54856 | 29236 ft | 402 kts | 274° |
| 2026-05-05 13:21 | 39.07947 | -10.58430 | 29518 ft | 403 kts | 273° |
| 2026-05-05 13:21 | 39.08067 | -10.62030 | 29783 ft | 405 kts | 273° |
| 2026-05-05 13:22 | 39.08185 | -10.65642 | 30054 ft | 407 kts | 272° |
| 2026-05-05 13:22 | 39.08230 | -10.69291 | 30313 ft | 409 kts | 270° |
| 2026-05-05 13:22 | 39.08230 | -10.72955 | 30605 ft | 410 kts | 270° |
| 2026-05-05 13:22 | 39.08226 | -10.76639 | 30869 ft | 412 kts | 270° |
| 2026-05-05 13:23 | 39.08220 | -10.80316 | 31133 ft | 413 kts | 270° |
| 2026-05-05 13:23 | 39.08213 | -10.83974 | 31387 ft | 414 kts | 270° |
| 2026-05-05 13:23 | 39.08204 | -10.87688 | 31647 ft | 415 kts | 270° |
| 2026-05-05 13:23 | 39.08194 | -10.91411 | 31912 ft | 416 kts | 270° |
| 2026-05-05 13:24 | 39.08184 | -10.95119 | 32160 ft | 417 kts | 270° |
| 2026-05-05 13:24 | 39.08173 | -10.98810 | 32397 ft | 418 kts | 270° |
| 2026-05-05 13:24 | 39.08160 | -11.02549 | 32650 ft | 419 kts | 270° |
| 2026-05-05 13:24 | 39.08146 | -11.06283 | 32966 ft | 418 kts | 270° |
| 2026-05-05 13:25 | 39.08132 | -11.09969 | 33331 ft | 415 kts | 270° |
| 2026-05-05 13:25 | 39.08115 | -11.13686 | 33659 ft | 414 kts | 270° |
| 2026-05-05 13:25 | 39.08099 | -11.17377 | 33954 ft | 413 kts | 270° |
| 2026-05-05 13:25 | 39.08081 | -11.21035 | 34264 ft | 411 kts | 270° |
| 2026-05-05 13:26 | 39.08062 | -11.24683 | 34554 ft | 409 kts | 269° |
| 2026-05-05 13:26 | 39.08041 | -11.28356 | 34732 ft | 410 kts | 270° |
| 2026-05-05 13:26 | 39.08019 | -11.32037 | 34860 ft | 412 kts | 269° |
| 2026-05-05 13:26 | 39.07996 | -11.35685 | 34992 ft | 413 kts | 269° |
| 2026-05-05 13:27 | 39.07972 | -11.39422 | 35146 ft | 414 kts | 269° |
| 2026-05-05 13:27 | 39.07945 | -11.43091 | 35287 ft | 415 kts | 270° |
| 2026-05-05 13:27 | 39.07918 | -11.46806 | 35418 ft | 416 kts | 270° |
| 2026-05-05 13:27 | 39.07890 | -11.50516 | 35554 ft | 417 kts | 270° |
| 2026-05-05 13:28 | 39.07860 | -11.54237 | 35686 ft | 418 kts | 270° |
| 2026-05-05 13:28 | 39.07830 | -11.57955 | 35823 ft | 419 kts | 270° |
| 2026-05-05 13:28 | 39.07800 | -11.61696 | 35971 ft | 419 kts | 270° |
| 2026-05-05 13:28 | 39.07767 | -11.65449 | 36091 ft | 420 kts | 269° |
| 2026-05-05 13:29 | 39.07697 | -11.72953 | 36135 ft | 422 kts | 269° |
| 2026-05-05 13:29 | 39.07624 | -11.80493 | 36136 ft | 422 kts | 269° |
| 2026-05-05 13:30 | 39.07544 | -11.88063 | 36149 ft | 423 kts | 269° |
| 2026-05-05 13:30 | 39.07458 | -11.95571 | 36145 ft | 423 kts | 269° |
| 2026-05-05 13:31 | 39.07371 | -12.03127 | 36160 ft | 424 kts | 269° |
| 2026-05-05 13:31 | 39.07283 | -12.10687 | 36158 ft | 424 kts | 268° |
| 2026-05-05 13:32 | 39.07167 | -12.18254 | 36160 ft | 425 kts | 269° |
| 2026-05-05 13:32 | 39.07056 | -12.25862 | 36163 ft | 425 kts | 269° |
| 2026-05-05 13:33 | 39.06945 | -12.33440 | 36162 ft | 426 kts | 269° |
| 2026-05-05 13:33 | 39.06831 | -12.41005 | 36163 ft | 426 kts | 269° |
| 2026-05-05 13:34 | 39.06710 | -12.48601 | 36164 ft | 427 kts | 269° |
| 2026-05-05 13:34 | 39.06584 | -12.56223 | 36163 ft | 426 kts | 269° |
| 2026-05-05 13:35 | 39.06455 | -12.63835 | 36164 ft | 427 kts | 269° |
| 2026-05-05 13:35 | 39.06321 | -12.71414 | 36168 ft | 427 kts | 268° |
| 2026-05-05 13:36 | 39.06182 | -12.79040 | 36166 ft | 428 kts | 268° |
| 2026-05-05 13:36 | 39.06038 | -12.86671 | 36165 ft | 429 kts | 268° |
| 2026-05-05 13:37 | 39.05889 | -12.94314 | 36156 ft | 429 kts | 268° |
| 2026-05-05 13:37 | 39.05734 | -13.01968 | 36153 ft | 429 kts | 268° |
| 2026-05-05 13:38 | 39.05573 | -13.09625 | 36156 ft | 429 kts | 268° |
| 2026-05-05 13:38 | 39.05406 | -13.17295 | 36160 ft | 429 kts | 268° |
| 2026-05-05 13:39 | 39.05236 | -13.24923 | 36163 ft | 430 kts | 268° |
| 2026-05-05 13:39 | 39.05062 | -13.32596 | 36170 ft | 431 kts | 268° |
| 2026-05-05 13:40 | 39.04881 | -13.40284 | 36178 ft | 431 kts | 268° |
| 2026-05-05 13:40 | 39.04694 | -13.47997 | 36186 ft | 432 kts | 268° |
| 2026-05-05 13:41 | 39.04504 | -13.55688 | 36191 ft | 432 kts | 268° |
| 2026-05-05 13:41 | 39.04308 | -13.63354 | 36186 ft | 433 kts | 268° |
| 2026-05-05 13:42 | 39.04105 | -13.71079 | 36184 ft | 432 kts | 268° |
| 2026-05-05 13:42 | 39.03899 | -13.78780 | 36184 ft | 433 kts | 268° |
| 2026-05-05 13:43 | 39.03687 | -13.86488 | 36190 ft | 434 kts | 268° |
| 2026-05-05 13:43 | 39.03469 | -13.94243 | 36194 ft | 435 kts | 268° |
| 2026-05-05 13:44 | 39.03245 | -14.02014 | 36193 ft | 435 kts | 268° |
| 2026-05-05 13:44 | 39.03019 | -14.09722 | 36197 ft | 436 kts | 268° |
| 2026-05-05 13:45 | 39.02783 | -14.17499 | 36199 ft | 436 kts | 268° |
| 2026-05-05 13:45 | 39.02543 | -14.25275 | 36200 ft | 436 kts | 268° |
| 2026-05-05 13:46 | 39.02300 | -14.33046 | 36203 ft | 437 kts | 268° |
| 2026-05-05 13:46 | 39.02050 | -14.40826 | 36205 ft | 437 kts | 268° |
| 2026-05-05 13:47 | 39.01796 | -14.48594 | 36206 ft | 437 kts | 268° |
| 2026-05-05 13:47 | 39.01535 | -14.56406 | 36207 ft | 438 kts | 268° |
| 2026-05-05 13:48 | 39.01271 | -14.64165 | 36209 ft | 438 kts | 268° |
| 2026-05-05 13:48 | 39.01000 | -14.71974 | 36215 ft | 438 kts | 267° |
| 2026-05-05 13:49 | 39.00726 | -14.79775 | 36211 ft | 438 kts | 267° |
| 2026-05-05 13:49 | 39.00445 | -14.87571 | 36214 ft | 438 kts | 267° |
| 2026-05-05 13:50 | 39.00209 | -14.95387 | 36215 ft | 439 kts | 269° |
| 2026-05-05 13:50 | 39.00473 | -15.03175 | 36213 ft | 439 kts | 275° |
| 2026-05-05 13:51 | 39.01299 | -15.10941 | 36214 ft | 440 kts | 278° |
| 2026-05-05 13:51 | 39.02239 | -15.18726 | 36221 ft | 441 kts | 278° |
| 2026-05-05 13:52 | 39.03175 | -15.26490 | 36218 ft | 441 kts | 278° |
| 2026-05-05 13:52 | 39.04106 | -15.34262 | 36221 ft | 441 kts | 278° |
| 2026-05-05 13:53 | 39.05030 | -15.42032 | 36218 ft | 441 kts | 278° |
| 2026-05-05 13:53 | 39.05942 | -15.49760 | 36219 ft | 441 kts | 278° |
| 2026-05-05 13:54 | 39.06856 | -15.57545 | 36233 ft | 441 kts | 278° |
| 2026-05-05 13:54 | 39.07769 | -15.65366 | 36237 ft | 442 kts | 278° |
| 2026-05-05 13:55 | 39.08677 | -15.73195 | 36229 ft | 442 kts | 278° |
| 2026-05-05 13:55 | 39.09573 | -15.80967 | 36226 ft | 442 kts | 278° |
| 2026-05-05 13:56 | 39.10466 | -15.88756 | 36236 ft | 442 kts | 278° |
| 2026-05-05 13:56 | 39.11360 | -15.96593 | 36244 ft | 443 kts | 278° |
| 2026-05-05 13:57 | 39.12244 | -16.04394 | 36242 ft | 443 kts | 278° |
| 2026-05-05 13:57 | 39.13127 | -16.12240 | 36233 ft | 443 kts | 278° |
| 2026-05-05 13:58 | 39.14000 | -16.20055 | 36243 ft | 443 kts | 278° |
| 2026-05-05 13:58 | 39.14866 | -16.27858 | 36243 ft | 443 kts | 278° |
| 2026-05-05 13:59 | 39.16169 | -16.39660 | 36241 ft | 444 kts | 278° |
| 2026-05-05 14:00 | 39.17314 | -16.50135 | 36240 ft | 445 kts | 278° |
| 2026-05-05 14:00 | 39.18304 | -16.59255 | 36239 ft | 444 kts | 278° |
| 2026-05-05 14:01 | 39.19154 | -16.67154 | 36232 ft | 444 kts | 277° |
| 2026-05-05 14:01 | 39.19993 | -16.75011 | 36231 ft | 445 kts | 278° |
| 2026-05-05 14:02 | 39.20832 | -16.82904 | 36243 ft | 445 kts | 278° |
| 2026-05-05 14:02 | 39.21664 | -16.90778 | 36247 ft | 445 kts | 278° |
| 2026-05-05 14:03 | 39.22489 | -16.98648 | 36243 ft | 446 kts | 278° |
| 2026-05-05 14:03 | 39.23316 | -17.06584 | 36241 ft | 446 kts | 278° |
| 2026-05-05 14:04 | 39.24133 | -17.14476 | 36255 ft | 447 kts | 278° |
| 2026-05-05 14:04 | 39.24943 | -17.22365 | 36258 ft | 446 kts | 278° |
| 2026-05-05 14:05 | 39.25754 | -17.30311 | 36259 ft | 446 kts | 278° |
| 2026-05-05 14:05 | 39.26554 | -17.38185 | 36249 ft | 446 kts | 278° |
| 2026-05-05 14:06 | 39.27350 | -17.46104 | 36252 ft | 447 kts | 278° |
| 2026-05-05 14:06 | 39.28144 | -17.54048 | 36259 ft | 447 kts | 278° |
| 2026-05-05 14:07 | 39.28928 | -17.61948 | 36260 ft | 447 kts | 278° |
| 2026-05-05 14:07 | 39.29715 | -17.69934 | 36262 ft | 448 kts | 278° |
| 2026-05-05 14:08 | 39.30493 | -17.77878 | 36256 ft | 448 kts | 278° |
| 2026-05-05 14:08 | 39.31267 | -17.85847 | 36260 ft | 449 kts | 278° |
| 2026-05-05 14:09 | 39.32034 | -17.93802 | 36258 ft | 449 kts | 278° |
| 2026-05-05 14:09 | 39.32800 | -18.01802 | 36262 ft | 449 kts | 278° |
| 2026-05-05 14:10 | 39.33558 | -18.09770 | 36265 ft | 448 kts | 278° |
| 2026-05-05 14:10 | 39.34310 | -18.17747 | 36265 ft | 449 kts | 278° |
| 2026-05-05 14:11 | 39.35057 | -18.25717 | 36266 ft | 449 kts | 278° |
| 2026-05-05 14:11 | 39.35794 | -18.33663 | 36271 ft | 449 kts | 278° |
| 2026-05-05 14:12 | 39.36535 | -18.41694 | 36277 ft | 449 kts | 278° |
| 2026-05-05 14:12 | 39.37267 | -18.49687 | 36281 ft | 450 kts | 278° |
| 2026-05-05 14:13 | 39.37387 | -18.51007 | 36283 ft | 450 kts | 278° |
| 2026-05-05 14:14 | 39.39378 | -18.73099 | 36285 ft | 450 kts | 278° |
| 2026-05-05 14:14 | 39.40093 | -18.81144 | 36287 ft | 451 kts | 278° |
| 2026-05-05 14:15 | 39.40799 | -18.89166 | 36285 ft | 451 kts | 278° |
| 2026-05-05 14:15 | 39.41498 | -18.97164 | 36287 ft | 451 kts | 278° |
| 2026-05-05 14:16 | 39.42198 | -19.05237 | 36290 ft | 451 kts | 278° |
| 2026-05-05 14:16 | 39.42884 | -19.13239 | 36296 ft | 451 kts | 279° |
| 2026-05-05 14:17 | 39.43572 | -19.21302 | 36289 ft | 451 kts | 279° |
| 2026-05-05 14:17 | 39.44247 | -19.29293 | 36286 ft | 450 kts | 279° |
| 2026-05-05 14:18 | 39.44921 | -19.37321 | 36294 ft | 450 kts | 279° |
| 2026-05-05 14:18 | 39.45589 | -19.45351 | 36298 ft | 450 kts | 280° |
| 2026-05-05 14:19 | 39.46250 | -19.53363 | 36304 ft | 450 kts | 280° |
| 2026-05-05 14:19 | 39.46907 | -19.61387 | 36297 ft | 450 kts | 280° |
| 2026-05-05 14:20 | 39.47563 | -19.69468 | 36303 ft | 451 kts | 280° |
| 2026-05-05 14:20 | 39.48209 | -19.77497 | 36299 ft | 451 kts | 280° |
| 2026-05-05 14:21 | 39.48848 | -19.85516 | 36294 ft | 452 kts | 280° |
| 2026-05-05 14:21 | 39.49358 | -19.93635 | 36302 ft | 455 kts | 277° |
| 2026-05-05 14:22 | 39.49238 | -20.01798 | 36310 ft | 459 kts | 271° |
| 2026-05-05 14:22 | 39.48421 | -20.10050 | 36310 ft | 464 kts | 265° |
| 2026-05-05 14:23 | 39.47171 | -20.18206 | 36310 ft | 465 kts | 264° |
| 2026-05-05 14:23 | 39.45898 | -20.26379 | 36311 ft | 466 kts | 264° |
| 2026-05-05 14:24 | 39.44617 | -20.34599 | 36313 ft | 467 kts | 264° |
| 2026-05-05 14:24 | 39.43340 | -20.42771 | 36321 ft | 467 kts | 265° |
| 2026-05-05 14:25 | 39.42045 | -20.51018 | 36324 ft | 468 kts | 265° |
| 2026-05-05 14:25 | 39.40756 | -20.59200 | 36325 ft | 467 kts | 265° |
| 2026-05-05 14:26 | 39.39453 | -20.67430 | 36328 ft | 467 kts | 265° |
| 2026-05-05 14:26 | 39.38149 | -20.75624 | 36323 ft | 469 kts | 265° |
| 2026-05-05 14:27 | 39.36840 | -20.83813 | 36323 ft | 469 kts | 265° |
| 2026-05-05 14:27 | 39.35508 | -20.92108 | 36328 ft | 471 kts | 265° |
| 2026-05-05 14:28 | 39.34178 | -21.00350 | 36328 ft | 472 kts | 266° |
| 2026-05-05 14:28 | 39.32841 | -21.08600 | 36328 ft | 473 kts | 266° |
| 2026-05-05 14:29 | 39.31490 | -21.16891 | 36327 ft | 472 kts | 266° |
| 2026-05-05 14:29 | 39.30131 | -21.25194 | 36319 ft | 472 kts | 266° |
| 2026-05-05 14:30 | 39.28779 | -21.33416 | 36318 ft | 473 kts | 266° |
| 2026-05-05 14:30 | 39.27404 | -21.41730 | 36317 ft | 472 kts | 266° |
| 2026-05-05 14:31 | 39.26034 | -21.49982 | 36315 ft | 473 kts | 266° |
| 2026-05-05 14:31 | 39.24660 | -21.58213 | 36317 ft | 472 kts | 266° |
| 2026-05-05 14:32 | 39.24157 | -21.61218 | 36317 ft | 473 kts | 266° |
| 2026-05-05 14:32 | 39.22765 | -21.69517 | 36317 ft | 474 kts | 265° |
| 2026-05-05 14:33 | 39.21377 | -21.77752 | 36318 ft | 473 kts | 265° |
| 2026-05-05 14:33 | 39.19977 | -21.86006 | 36324 ft | 473 kts | 265° |
| 2026-05-05 14:34 | 39.18568 | -21.94288 | 36319 ft | 473 kts | 265° |
| 2026-05-05 14:34 | 39.17161 | -22.02516 | 36322 ft | 473 kts | 265° |
| 2026-05-05 14:35 | 39.15745 | -22.10756 | 36329 ft | 473 kts | 266° |
| 2026-05-05 14:35 | 39.14315 | -22.19046 | 36325 ft | 473 kts | 266° |
| 2026-05-05 14:36 | 39.12896 | -22.27230 | 36328 ft | 472 kts | 266° |
| 2026-05-05 14:36 | 39.11462 | -22.35474 | 36319 ft | 472 kts | 266° |
| 2026-05-05 14:37 | 39.10030 | -22.43664 | 36325 ft | 472 kts | 266° |
| 2026-05-05 14:37 | 39.08587 | -22.51877 | 36336 ft | 471 kts | 266° |
| 2026-05-05 14:38 | 39.07140 | -22.60086 | 36333 ft | 471 kts | 266° |
| 2026-05-05 14:38 | 39.05691 | -22.68260 | 36336 ft | 472 kts | 265° |
| 2026-05-05 14:39 | 39.04225 | -22.76502 | 36335 ft | 472 kts | 265° |
| 2026-05-05 14:39 | 39.02767 | -22.84662 | 36336 ft | 472 kts | 265° |
| 2026-05-05 14:40 | 39.01291 | -22.92893 | 36342 ft | 472 kts | 265° |
| 2026-05-05 14:40 | 38.99818 | -23.01054 | 36242 ft | 472 kts | 265° |
| 2026-05-05 14:41 | 38.99083 | -23.05112 | 36620 ft | 471 kts | 265° |
| 2026-05-05 14:41 | 38.98340 | -23.09216 | 36456 ft | 470 kts | 265° |
| 2026-05-05 14:41 | 38.96858 | -23.17375 | 36352 ft | 469 kts | 265° |
| 2026-05-05 14:42 | 38.95372 | -23.25513 | 36335 ft | 469 kts | 265° |
| 2026-05-05 14:42 | 38.93885 | -23.33626 | 36330 ft | 468 kts | 265° |
| 2026-05-05 14:43 | 38.92389 | -23.41747 | 36321 ft | 469 kts | 265° |
| 2026-05-05 14:43 | 38.90888 | -23.49868 | 36324 ft | 470 kts | 265° |
| 2026-05-05 14:44 | 38.89378 | -23.58001 | 36323 ft | 469 kts | 265° |
| 2026-05-05 14:44 | 38.87875 | -23.66069 | 36332 ft | 469 kts | 264° |
| 2026-05-05 14:45 | 38.86346 | -23.74227 | 36334 ft | 468 kts | 264° |
| 2026-05-05 14:45 | 38.84836 | -23.82272 | 36339 ft | 469 kts | 264° |
| 2026-05-05 14:46 | 38.83302 | -23.90395 | 36342 ft | 468 kts | 264° |
| 2026-05-05 14:46 | 38.81773 | -23.98458 | 36345 ft | 468 kts | 264° |
| 2026-05-05 14:47 | 38.80238 | -24.06530 | 36339 ft | 468 kts | 264° |
| 2026-05-05 14:47 | 38.78692 | -24.14620 | 36337 ft | 468 kts | 264° |
| 2026-05-05 14:48 | 38.77146 | -24.22676 | 36337 ft | 468 kts | 264° |
| 2026-05-05 14:48 | 38.75598 | -24.30712 | 36340 ft | 467 kts | 264° |
| 2026-05-05 14:49 | 38.74033 | -24.38807 | 36337 ft | 468 kts | 264° |
| 2026-05-05 14:49 | 38.72478 | -24.46815 | 36343 ft | 467 kts | 264° |
| 2026-05-05 14:50 | 38.70911 | -24.54859 | 36344 ft | 467 kts | 264° |
| 2026-05-05 14:50 | 38.69338 | -24.62899 | 36348 ft | 467 kts | 264° |
| 2026-05-05 14:51 | 38.67756 | -24.70941 | 36351 ft | 467 kts | 264° |
| 2026-05-05 14:51 | 38.66176 | -24.78956 | 36353 ft | 466 kts | 264° |
| 2026-05-05 14:52 | 38.64593 | -24.86962 | 36350 ft | 465 kts | 264° |
| 2026-05-05 14:52 | 38.63007 | -24.94945 | 36352 ft | 467 kts | 264° |
| 2026-05-05 14:53 | 38.61405 | -25.02974 | 36352 ft | 467 kts | 264° |
| 2026-05-05 14:53 | 38.59797 | -25.10991 | 36351 ft | 467 kts | 264° |
| 2026-05-05 14:54 | 38.58187 | -25.18995 | 36352 ft | 466 kts | 264° |
| 2026-05-05 14:54 | 38.56579 | -25.26959 | 36354 ft | 465 kts | 264° |
| 2026-05-05 14:55 | 38.54968 | -25.34909 | 36356 ft | 465 kts | 264° |
| 2026-05-05 14:55 | 38.53352 | -25.42869 | 36358 ft | 465 kts | 264° |
| 2026-05-05 14:56 | 38.51720 | -25.50863 | 36360 ft | 465 kts | 265° |
| 2026-05-05 14:56 | 38.50089 | -25.58822 | 36361 ft | 464 kts | 265° |
| 2026-05-05 14:57 | 38.48466 | -25.66718 | 36351 ft | 465 kts | 264° |
| 2026-05-05 14:57 | 38.46819 | -25.74701 | 36351 ft | 466 kts | 264° |
| 2026-05-05 14:58 | 38.45172 | -25.82650 | 36346 ft | 463 kts | 264° |
| 2026-05-05 14:58 | 38.43528 | -25.90565 | 36342 ft | 465 kts | 265° |
| 2026-05-05 14:59 | 38.41863 | -25.98562 | 36346 ft | 467 kts | 265° |
| 2026-05-05 14:59 | 38.40194 | -26.06550 | 36347 ft | 469 kts | 265° |
| 2026-05-05 15:00 | 38.38800 | -26.13160 | 36348 ft | 467 kts | 265° |
| 2026-05-05 15:00 | 38.36838 | -26.22473 | 36347 ft | 464 kts | 265° |
| 2026-05-05 15:01 | 38.35158 | -26.30404 | 36350 ft | 465 kts | 265° |
| 2026-05-05 15:01 | 38.33483 | -26.38277 | 36350 ft | 463 kts | 265° |
| 2026-05-05 15:02 | 38.31792 | -26.46211 | 36346 ft | 466 kts | 265° |
| 2026-05-05 15:02 | 38.30101 | -26.54125 | 36350 ft | 467 kts | 265° |
| 2026-05-05 15:03 | 38.28394 | -26.62069 | 36362 ft | 463 kts | 265° |
| 2026-05-05 15:03 | 38.26693 | -26.69941 | 36359 ft | 463 kts | 264° |
| 2026-05-05 15:04 | 38.24981 | -26.77867 | 36361 ft | 467 kts | 264° |
| 2026-05-05 15:04 | 38.23265 | -26.85775 | 36355 ft | 465 kts | 265° |
| 2026-05-05 15:05 | 38.20679 | -26.97611 | 36357 ft | 465 kts | 264° |
| 2026-05-05 15:06 | 38.18948 | -27.05505 | 36362 ft | 465 kts | 264° |
| 2026-05-05 15:06 | 38.17205 | -27.13435 | 36369 ft | 465 kts | 264° |
| 2026-05-05 15:07 | 38.15463 | -27.21326 | 36368 ft | 466 kts | 264° |
| 2026-05-05 15:07 | 38.13710 | -27.29236 | 36363 ft | 466 kts | 265° |
| 2026-05-05 15:08 | 38.11956 | -27.37110 | 36363 ft | 465 kts | 265° |
| 2026-05-05 15:08 | 38.10194 | -27.45020 | 36366 ft | 467 kts | 265° |
| 2026-05-05 15:09 | 38.08438 | -27.52872 | 36367 ft | 464 kts | 264° |
| 2026-05-05 15:09 | 38.06676 | -27.60717 | 36364 ft | 467 kts | 265° |
| 2026-05-05 15:10 | 38.04898 | -27.68613 | 36369 ft | 468 kts | 263° |
| 2026-05-05 15:10 | 38.03100 | -27.76564 | 36366 ft | 472 kts | 264° |
| 2026-05-05 15:11 | 38.01295 | -27.84506 | 36375 ft | 469 kts | 263° |
| 2026-05-05 15:11 | 38.00100 | -27.89774 | 36381 ft | 471 kts | 264° |
| 2026-05-05 15:12 | 37.97758 | -28.00028 | 36383 ft | 468 kts | 263° |
| 2026-05-05 15:12 | 37.95960 | -28.07856 | 36378 ft | 467 kts | 263° |
| 2026-05-05 15:13 | 37.93834 | -28.17101 | 36375 ft | 468 kts | 263° |
| 2026-05-05 15:13 | 37.92315 | -28.23677 | 36379 ft | 469 kts | 264° |
| 2026-05-05 15:14 | 37.90493 | -28.31532 | 36375 ft | 466 kts | 263° |
| 2026-05-05 15:14 | 37.88668 | -28.39385 | 36373 ft | 467 kts | 263° |
| 2026-05-05 15:15 | 37.86835 | -28.47250 | 36372 ft | 470 kts | 264° |
| 2026-05-05 15:15 | 37.84986 | -28.55151 | 36371 ft | 469 kts | 264° |
| 2026-05-05 15:16 | 37.83150 | -28.62983 | 36361 ft | 468 kts | 263° |
| 2026-05-05 15:16 | 37.81293 | -28.70868 | 36372 ft | 470 kts | 263° |
| 2026-05-05 15:17 | 37.79433 | -28.78732 | 36370 ft | 469 kts | 263° |
| 2026-05-05 15:17 | 37.77567 | -28.86608 | 36373 ft | 468 kts | 262° |
| 2026-05-05 15:18 | 37.75707 | -28.94416 | 36376 ft | 467 kts | 263° |
| 2026-05-05 15:18 | 37.73832 | -29.02278 | 36376 ft | 468 kts | 263° |
| 2026-05-05 15:19 | 37.71957 | -29.10107 | 36380 ft | 466 kts | 263° |
| 2026-05-05 15:19 | 37.70080 | -29.17924 | 36383 ft | 467 kts | 263° |
| 2026-05-05 15:20 | 37.68194 | -29.25749 | 36377 ft | 467 kts | 262° |
| 2026-05-05 15:20 | 37.66305 | -29.33566 | 36377 ft | 468 kts | 262° |
| 2026-05-05 15:21 | 37.64407 | -29.41393 | 36376 ft | 468 kts | 262° |
| 2026-05-05 15:21 | 37.62516 | -29.49158 | 36374 ft | 468 kts | 262° |
| 2026-05-05 15:22 | 37.60603 | -29.56988 | 36373 ft | 465 kts | 262° |
| 2026-05-05 15:22 | 37.58711 | -29.64715 | 36370 ft | 465 kts | 262° |
| 2026-05-05 15:23 | 37.56794 | -29.72524 | 36372 ft | 467 kts | 261° |
| 2026-05-05 15:23 | 37.54882 | -29.80277 | 36374 ft | 466 kts | 261° |
| 2026-05-05 15:24 | 37.52952 | -29.88092 | 36378 ft | 468 kts | 261° |
| 2026-05-05 15:24 | 37.51015 | -29.95895 | 36381 ft | 467 kts | 261° |
| 2026-05-05 15:25 | 37.49249 | -30.03670 | 36386 ft | 464 kts | 264° |
| 2026-05-05 15:25 | 37.47670 | -30.11501 | 36392 ft | 462 kts | 264° |
| 2026-05-05 15:26 | 37.46090 | -30.19324 | 36394 ft | 463 kts | 264° |
| 2026-05-05 15:26 | 37.44506 | -30.27127 | 36393 ft | 462 kts | 264° |
| 2026-05-05 15:27 | 37.42907 | -30.34962 | 36390 ft | 460 kts | 264° |
| 2026-05-05 15:27 | 37.41319 | -30.42733 | 36391 ft | 462 kts | 264° |
| 2026-05-05 15:28 | 37.39713 | -30.50546 | 36387 ft | 462 kts | 264° |
| 2026-05-05 15:28 | 37.38118 | -30.58273 | 36388 ft | 461 kts | 264° |
| 2026-05-05 15:29 | 37.36509 | -30.66046 | 36386 ft | 462 kts | 263° |
| 2026-05-05 15:29 | 37.34891 | -30.73842 | 36384 ft | 462 kts | 263° |
| 2026-05-05 15:30 | 37.32995 | -30.82946 | 36382 ft | 462 kts | 263° |
| 2026-05-05 15:30 | 37.31634 | -30.89444 | 36382 ft | 461 kts | 263° |
| 2026-05-05 15:31 | 37.30016 | -30.97143 | 36381 ft | 462 kts | 263° |
| 2026-05-05 15:31 | 37.28380 | -31.04908 | 36385 ft | 461 kts | 263° |
| 2026-05-05 15:32 | 37.26731 | -31.12722 | 36383 ft | 461 kts | 263° |
| 2026-05-05 15:32 | 37.25083 | -31.20470 | 36384 ft | 461 kts | 263° |
| 2026-05-05 15:33 | 37.23445 | -31.28175 | 36380 ft | 462 kts | 263° |
| 2026-05-05 15:33 | 37.21786 | -31.35933 | 36376 ft | 461 kts | 263° |
| 2026-05-05 15:34 | 37.20135 | -31.43639 | 36377 ft | 462 kts | 262° |
| 2026-05-05 15:34 | 37.18462 | -31.51419 | 36370 ft | 462 kts | 262° |
| 2026-05-05 15:35 | 37.16792 | -31.59151 | 36367 ft | 462 kts | 262° |
| 2026-05-05 15:35 | 37.14837 | -31.68168 | 36379 ft | 461 kts | 262° |
| 2026-05-05 15:36 | 37.13435 | -31.74623 | 36373 ft | 463 kts | 262° |
| 2026-05-05 15:36 | 37.11749 | -31.82361 | 36373 ft | 463 kts | 262° |
| 2026-05-05 15:37 | 37.10045 | -31.90147 | 36374 ft | 464 kts | 261° |
| 2026-05-05 15:37 | 37.08338 | -31.97909 | 36379 ft | 464 kts | 261° |
| 2026-05-05 15:38 | 37.06629 | -32.05661 | 36382 ft | 464 kts | 261° |
| 2026-05-05 15:38 | 37.04916 | -32.13401 | 36373 ft | 463 kts | 261° |
| 2026-05-05 15:39 | 37.03206 | -32.21109 | 36379 ft | 462 kts | 261° |
| 2026-05-05 15:39 | 37.01485 | -32.28839 | 36377 ft | 462 kts | 261° |
| 2026-05-05 15:40 | 36.99761 | -32.36543 | 36380 ft | 461 kts | 261° |
| 2026-05-05 15:40 | 36.98036 | -32.44248 | 36380 ft | 461 kts | 261° |
| 2026-05-05 15:41 | 36.96316 | -32.51898 | 36385 ft | 460 kts | 261° |
| 2026-05-05 15:41 | 36.94573 | -32.59625 | 36382 ft | 460 kts | 261° |
| 2026-05-05 15:42 | 36.92845 | -32.67259 | 36380 ft | 460 kts | 260° |
| 2026-05-05 15:42 | 36.91100 | -32.74939 | 36379 ft | 459 kts | 261° |
| 2026-05-05 15:43 | 36.89367 | -32.82547 | 36372 ft | 460 kts | 261° |
| 2026-05-05 15:43 | 36.87616 | -32.90213 | 36377 ft | 459 kts | 260° |
| 2026-05-05 15:44 | 36.85867 | -32.97839 | 36377 ft | 459 kts | 261° |
| 2026-05-05 15:44 | 36.83818 | -33.06735 | 36376 ft | 459 kts | 261° |
| 2026-05-05 15:45 | 36.82349 | -33.13097 | 36380 ft | 457 kts | 261° |
| 2026-05-05 15:45 | 36.80299 | -33.21948 | 36378 ft | 457 kts | 261° |
| 2026-05-05 15:46 | 36.78820 | -33.28315 | 36377 ft | 458 kts | 261° |
| 2026-05-05 15:46 | 36.76751 | -33.37191 | 36378 ft | 459 kts | 260° |
| 2026-05-05 15:47 | 36.75273 | -33.43509 | 36376 ft | 458 kts | 260° |
| 2026-05-05 15:47 | 36.73489 | -33.51118 | 36376 ft | 458 kts | 260° |
| 2026-05-05 15:48 | 36.71708 | -33.58679 | 36376 ft | 458 kts | 260° |
| 2026-05-05 15:48 | 36.69617 | -33.67537 | 36379 ft | 458 kts | 260° |
| 2026-05-05 15:49 | 36.68119 | -33.73866 | 36379 ft | 458 kts | 260° |
| 2026-05-05 15:49 | 36.66314 | -33.81458 | 36384 ft | 457 kts | 260° |
| 2026-05-05 15:50 | 36.64214 | -33.90274 | 36379 ft | 457 kts | 260° |
| 2026-05-05 15:50 | 36.62701 | -33.96599 | 36374 ft | 457 kts | 260° |
| 2026-05-05 15:51 | 36.60897 | -34.04126 | 36370 ft | 456 kts | 259° |
| 2026-05-05 15:51 | 36.59080 | -34.11681 | 36369 ft | 457 kts | 259° |
| 2026-05-05 15:52 | 36.57259 | -34.19231 | 36370 ft | 455 kts | 259° |
| 2026-05-05 15:52 | 36.55442 | -34.26732 | 36376 ft | 456 kts | 259° |
| 2026-05-05 15:53 | 36.53315 | -34.35498 | 36373 ft | 456 kts | 259° |
| 2026-05-05 15:53 | 36.51484 | -34.43010 | 36373 ft | 454 kts | 259° |
| 2026-05-05 15:54 | 36.49957 | -34.49261 | 36371 ft | 455 kts | 259° |
| 2026-05-05 15:54 | 36.47820 | -34.57984 | 36370 ft | 455 kts | 259° |
| 2026-05-05 15:55 | 36.45982 | -34.65458 | 36374 ft | 454 kts | 259° |
| 2026-05-05 15:55 | 36.44143 | -34.72919 | 36368 ft | 454 kts | 259° |
| 2026-05-05 15:56 | 36.42291 | -34.80410 | 36366 ft | 454 kts | 259° |
| 2026-05-05 15:56 | 36.40436 | -34.87888 | 36366 ft | 454 kts | 259° |
| 2026-05-05 15:57 | 36.38589 | -34.95312 | 36372 ft | 454 kts | 259° |
| 2026-05-05 15:57 | 36.36720 | -35.02806 | 36367 ft | 454 kts | 259° |
| 2026-05-05 15:58 | 36.34852 | -35.10265 | 36366 ft | 454 kts | 259° |
| 2026-05-05 15:58 | 36.32980 | -35.17722 | 36366 ft | 454 kts | 259° |
| 2026-05-05 15:59 | 36.31120 | -35.25111 | 36364 ft | 453 kts | 259° |
| 2026-05-05 15:59 | 36.29240 | -35.32556 | 36366 ft | 452 kts | 259° |
| 2026-05-05 16:00 | 36.27679 | -35.38722 | 36361 ft | 451 kts | 259° |
| 2026-05-05 16:00 | 36.25494 | -35.47330 | 36362 ft | 451 kts | 258° |
| 2026-05-05 16:01 | 36.23923 | -35.53497 | 36358 ft | 452 kts | 259° |
| 2026-05-05 16:01 | 36.21727 | -35.62092 | 36362 ft | 451 kts | 259° |
| 2026-05-05 16:02 | 36.19829 | -35.69506 | 36359 ft | 451 kts | 258° |
| 2026-05-05 16:02 | 36.17945 | -35.76835 | 36361 ft | 450 kts | 258° |
| 2026-05-05 16:03 | 36.16050 | -35.84190 | 36360 ft | 449 kts | 258° |
| 2026-05-05 16:03 | 36.14146 | -35.91559 | 36360 ft | 449 kts | 258° |
| 2026-05-05 16:04 | 36.12257 | -35.98851 | 36359 ft | 450 kts | 258° |
| 2026-05-05 16:04 | 36.10352 | -36.06187 | 36360 ft | 449 kts | 258° |
| 2026-05-05 16:05 | 36.08444 | -36.13509 | 36355 ft | 449 kts | 258° |
| 2026-05-05 16:05 | 36.06522 | -36.20857 | 36352 ft | 449 kts | 258° |
| 2026-05-05 16:06 | 36.04607 | -36.28165 | 36351 ft | 449 kts | 258° |
| 2026-05-05 16:06 | 36.02692 | -36.35454 | 36353 ft | 448 kts | 258° |
| 2026-05-05 16:07 | 36.00773 | -36.42737 | 36354 ft | 448 kts | 258° |
| 2026-05-05 16:07 | 35.98837 | -36.50063 | 36354 ft | 448 kts | 258° |
| 2026-05-05 16:08 | 35.96914 | -36.57319 | 36352 ft | 448 kts | 258° |
| 2026-05-05 16:08 | 35.94969 | -36.64632 | 36353 ft | 447 kts | 258° |
| 2026-05-05 16:09 | 35.93039 | -36.71880 | 36356 ft | 448 kts | 257° |
| 2026-05-05 16:09 | 35.91090 | -36.79173 | 36360 ft | 448 kts | 257° |
| 2026-05-05 16:10 | 35.89150 | -36.86414 | 36359 ft | 448 kts | 257° |
| 2026-05-05 16:10 | 35.87190 | -36.93711 | 36361 ft | 447 kts | 257° |
| 2026-05-05 16:11 | 35.85244 | -37.00937 | 36361 ft | 447 kts | 257° |
| 2026-05-05 16:12 | 35.81315 | -37.15453 | 36360 ft | 447 kts | 257° |
| 2026-05-05 16:13 | 35.76398 | -37.33516 | 36356 ft | 445 kts | 257° |
| 2026-05-05 16:13 | 35.74435 | -37.40699 | 36355 ft | 445 kts | 257° |
| 2026-05-05 16:14 | 35.70489 | -37.55077 | 36354 ft | 445 kts | 256° |
| 2026-05-05 16:15 | 35.66538 | -37.69391 | 36353 ft | 444 kts | 256° |
| 2026-05-05 16:16 | 35.62561 | -37.83723 | 36351 ft | 444 kts | 256° |
| 2026-05-05 16:17 | 35.59575 | -37.94433 | 36351 ft | 443 kts | 256° |
| 2026-05-05 16:18 | 35.56586 | -38.05118 | 36352 ft | 442 kts | 256° |
| 2026-05-05 16:19 | 35.53598 | -38.15755 | 36346 ft | 441 kts | 256° |
| 2026-05-05 16:19 | 35.50611 | -38.26351 | 36341 ft | 441 kts | 256° |
| 2026-05-05 16:20 | 35.46601 | -38.40507 | 36341 ft | 441 kts | 256° |
| 2026-05-05 16:22 | 35.41553 | -38.58220 | 36349 ft | 441 kts | 256° |
| 2026-05-05 16:23 | 35.37514 | -38.72316 | 36341 ft | 441 kts | 255° |
| 2026-05-05 16:23 | 35.34454 | -38.82956 | 36344 ft | 441 kts | 255° |
| 2026-05-05 16:24 | 35.32422 | -38.89991 | 36342 ft | 442 kts | 255° |
| 2026-05-05 16:25 | 35.29365 | -39.00543 | 36333 ft | 440 kts | 255° |
| 2026-05-05 16:25 | 35.26286 | -39.11136 | 36326 ft | 440 kts | 255° |
| 2026-05-05 16:26 | 35.22195 | -39.25147 | 36327 ft | 439 kts | 255° |
| 2026-05-05 16:27 | 35.20149 | -39.32131 | 36324 ft | 439 kts | 255° |
| 2026-05-05 16:27 | 35.18081 | -39.39169 | 36323 ft | 439 kts | 255° |
| 2026-05-05 16:28 | 35.16024 | -39.46154 | 36324 ft | 439 kts | 255° |
| 2026-05-05 16:28 | 35.13966 | -39.53121 | 36322 ft | 439 kts | 255° |
| 2026-05-05 16:29 | 35.11898 | -39.60114 | 36322 ft | 439 kts | 255° |
| 2026-05-05 16:29 | 35.09820 | -39.67115 | 36324 ft | 439 kts | 254° |
| 2026-05-05 16:30 | 35.07753 | -39.74063 | 36321 ft | 438 kts | 254° |
| 2026-05-05 16:30 | 35.05661 | -39.81080 | 36323 ft | 438 kts | 254° |
| 2026-05-05 16:31 | 35.03591 | -39.88006 | 36315 ft | 437 kts | 254° |
| 2026-05-05 16:31 | 35.01551 | -39.94968 | 36321 ft | 436 kts | 256° |
| 2026-05-05 16:32 | 34.99989 | -40.02032 | 36320 ft | 433 kts | 262° |
| 2026-05-05 16:32 | 34.99009 | -40.09220 | 36322 ft | 431 kts | 266° |
| 2026-05-05 16:33 | 34.98224 | -40.16454 | 36322 ft | 430 kts | 266° |
| 2026-05-05 16:33 | 34.97441 | -40.23653 | 36319 ft | 430 kts | 266° |
| 2026-05-05 16:34 | 34.96652 | -40.30872 | 36322 ft | 430 kts | 266° |
| 2026-05-05 16:34 | 34.95866 | -40.38027 | 36318 ft | 430 kts | 265° |
| 2026-05-05 16:35 | 34.95066 | -40.45262 | 36313 ft | 430 kts | 266° |
| 2026-05-05 16:35 | 34.94268 | -40.52433 | 36314 ft | 429 kts | 266° |
| 2026-05-05 16:36 | 34.93465 | -40.59618 | 36314 ft | 429 kts | 265° |
| 2026-05-05 16:36 | 34.92663 | -40.66766 | 36311 ft | 428 kts | 265° |
| 2026-05-05 16:37 | 34.91849 | -40.73958 | 36305 ft | 429 kts | 265° |
| 2026-05-05 16:37 | 34.91039 | -40.81110 | 36310 ft | 430 kts | 265° |
| 2026-05-05 16:38 | 34.90222 | -40.88276 | 36309 ft | 429 kts | 265° |
| 2026-05-05 16:38 | 34.89399 | -40.95441 | 36303 ft | 428 kts | 265° |
| 2026-05-05 16:39 | 34.88569 | -41.02632 | 36304 ft | 429 kts | 265° |
| 2026-05-05 16:39 | 34.87738 | -41.09789 | 36304 ft | 429 kts | 265° |
| 2026-05-05 16:40 | 34.86904 | -41.16945 | 36299 ft | 428 kts | 265° |
| 2026-05-05 16:40 | 34.86066 | -41.24100 | 36306 ft | 428 kts | 265° |
| 2026-05-05 16:41 | 34.85229 | -41.31212 | 36310 ft | 426 kts | 265° |
| 2026-05-05 16:41 | 34.84383 | -41.38340 | 36308 ft | 427 kts | 265° |
| 2026-05-05 16:42 | 34.83539 | -41.45438 | 36310 ft | 427 kts | 265° |
| 2026-05-05 16:42 | 34.82681 | -41.52599 | 36313 ft | 427 kts | 265° |
| 2026-05-05 16:43 | 34.81828 | -41.59696 | 36312 ft | 427 kts | 265° |
| 2026-05-05 16:43 | 34.80970 | -41.66801 | 36309 ft | 427 kts | 264° |
| 2026-05-05 16:44 | 34.80102 | -41.73951 | 36306 ft | 426 kts | 264° |
| 2026-05-05 16:44 | 34.79237 | -41.81038 | 36305 ft | 426 kts | 264° |
| 2026-05-05 16:45 | 34.78368 | -41.88112 | 36306 ft | 426 kts | 264° |
| 2026-05-05 16:45 | 34.77490 | -41.95233 | 36306 ft | 425 kts | 264° |
| 2026-05-05 16:46 | 34.76614 | -42.02302 | 36310 ft | 425 kts | 264° |
| 2026-05-05 16:46 | 34.75732 | -42.09380 | 36307 ft | 425 kts | 264° |
| 2026-05-05 16:47 | 34.74848 | -42.16458 | 36310 ft | 424 kts | 264° |
| 2026-05-05 16:47 | 34.73957 | -42.23539 | 36309 ft | 424 kts | 264° |
| 2026-05-05 16:48 | 34.73066 | -42.30601 | 36301 ft | 425 kts | 264° |
| 2026-05-05 16:48 | 34.72166 | -42.37688 | 36303 ft | 425 kts | 264° |
| 2026-05-05 16:49 | 34.71265 | -42.44758 | 36307 ft | 425 kts | 264° |
| 2026-05-05 16:49 | 34.70365 | -42.51779 | 36300 ft | 424 kts | 264° |
| 2026-05-05 16:50 | 34.69449 | -42.58897 | 36554 ft | 426 kts | 263° |
| 2026-05-05 16:50 | 34.68993 | -42.62424 | 36898 ft | 424 kts | 264° |
| 2026-05-05 16:50 | 34.68536 | -42.65946 | 37242 ft | 422 kts | 263° |
| 2026-05-05 16:51 | 34.68079 | -42.69451 | 37560 ft | 421 kts | 263° |
| 2026-05-05 16:51 | 34.67625 | -42.72944 | 37884 ft | 420 kts | 263° |
| 2026-05-05 16:51 | 34.67177 | -42.76384 | 38189 ft | 419 kts | 263° |
| 2026-05-05 16:51 | 34.66719 | -42.79899 | 38294 ft | 418 kts | 263° |
| 2026-05-05 16:52 | 34.65811 | -42.86826 | 38297 ft | 418 kts | 263° |
| 2026-05-05 16:52 | 34.64895 | -42.93780 | 38301 ft | 419 kts | 263° |
| 2026-05-05 16:53 | 34.63969 | -43.00772 | 38299 ft | 420 kts | 263° |
| 2026-05-05 16:53 | 34.63044 | -43.07727 | 38301 ft | 419 kts | 263° |
| 2026-05-05 16:54 | 34.62111 | -43.14704 | 38302 ft | 419 kts | 263° |
| 2026-05-05 16:54 | 34.61179 | -43.21659 | 38302 ft | 418 kts | 263° |
| 2026-05-05 16:55 | 34.60242 | -43.28624 | 38302 ft | 418 kts | 263° |
| 2026-05-05 16:55 | 34.59304 | -43.35547 | 38302 ft | 419 kts | 263° |
| 2026-05-05 16:56 | 34.58360 | -43.42494 | 38302 ft | 419 kts | 263° |
| 2026-05-05 16:56 | 34.57409 | -43.49461 | 38302 ft | 418 kts | 263° |
| 2026-05-05 16:57 | 34.56461 | -43.56377 | 38302 ft | 418 kts | 263° |
| 2026-05-05 16:57 | 34.55502 | -43.63343 | 38303 ft | 419 kts | 263° |
| 2026-05-05 16:58 | 34.54543 | -43.70274 | 38303 ft | 420 kts | 263° |
| 2026-05-05 16:58 | 34.53582 | -43.77201 | 38302 ft | 420 kts | 262° |
| 2026-05-05 16:59 | 34.52609 | -43.84169 | 38302 ft | 419 kts | 262° |
| 2026-05-05 16:59 | 34.51635 | -43.91116 | 38302 ft | 420 kts | 262° |
| 2026-05-05 17:00 | 34.50655 | -43.98081 | 38302 ft | 420 kts | 263° |
| 2026-05-05 17:00 | 34.49671 | -44.05048 | 38302 ft | 419 kts | 262° |
| 2026-05-05 17:01 | 34.48692 | -44.11956 | 38305 ft | 418 kts | 262° |
| 2026-05-05 17:01 | 34.47701 | -44.18909 | 38302 ft | 418 kts | 262° |
| 2026-05-05 17:02 | 34.46712 | -44.25813 | 38301 ft | 418 kts | 262° |
| 2026-05-05 17:02 | 34.45719 | -44.32729 | 38296 ft | 418 kts | 262° |
| 2026-05-05 17:03 | 34.44726 | -44.39621 | 38291 ft | 418 kts | 262° |
| 2026-05-05 17:03 | 34.43720 | -44.46563 | 38289 ft | 418 kts | 262° |
| 2026-05-05 17:04 | 34.42720 | -44.53440 | 38285 ft | 417 kts | 262° |
| 2026-05-05 17:04 | 34.41715 | -44.60315 | 38285 ft | 416 kts | 262° |
| 2026-05-05 17:05 | 34.40702 | -44.67221 | 38285 ft | 417 kts | 262° |
| 2026-05-05 17:05 | 34.39688 | -44.74108 | 38282 ft | 417 kts | 262° |
| 2026-05-05 17:06 | 34.38664 | -44.81031 | 38282 ft | 418 kts | 261° |
| 2026-05-05 17:06 | 34.37642 | -44.87920 | 38282 ft | 417 kts | 261° |
| 2026-05-05 17:07 | 34.36615 | -44.94803 | 38284 ft | 418 kts | 261° |
| 2026-05-05 17:07 | 34.35584 | -45.01697 | 38280 ft | 417 kts | 261° |
| 2026-05-05 17:08 | 34.34551 | -45.08580 | 38277 ft | 416 kts | 261° |
| 2026-05-05 17:08 | 34.33516 | -45.15435 | 38280 ft | 415 kts | 261° |
| 2026-05-05 17:09 | 34.32482 | -45.22256 | 38282 ft | 416 kts | 261° |
| 2026-05-05 17:09 | 34.31438 | -45.29121 | 38282 ft | 415 kts | 261° |
| 2026-05-05 17:10 | 34.30393 | -45.35972 | 38277 ft | 415 kts | 261° |
| 2026-05-05 17:10 | 34.29347 | -45.42796 | 38279 ft | 415 kts | 261° |
| 2026-05-05 17:11 | 34.28297 | -45.49626 | 38280 ft | 414 kts | 261° |
| 2026-05-05 17:11 | 34.27246 | -45.56429 | 38281 ft | 414 kts | 261° |
| 2026-05-05 17:12 | 34.26191 | -45.63235 | 38281 ft | 414 kts | 261° |
| 2026-05-05 17:12 | 34.25124 | -45.70086 | 38282 ft | 414 kts | 260° |
| 2026-05-05 17:13 | 34.24063 | -45.76887 | 38279 ft | 414 kts | 260° |
| 2026-05-05 17:13 | 34.22998 | -45.83682 | 38271 ft | 413 kts | 260° |
| 2026-05-05 17:14 | 34.21926 | -45.90508 | 38275 ft | 413 kts | 260° |
| 2026-05-05 17:14 | 34.20852 | -45.97296 | 38278 ft | 413 kts | 260° |
| 2026-05-05 17:15 | 34.19775 | -46.04074 | 38276 ft | 413 kts | 260° |
| 2026-05-05 17:15 | 34.18697 | -46.10851 | 38281 ft | 412 kts | 261° |
| 2026-05-05 17:16 | 34.17610 | -46.17656 | 38279 ft | 412 kts | 260° |
| 2026-05-05 17:16 | 34.16528 | -46.24422 | 38283 ft | 411 kts | 260° |
| 2026-05-05 17:17 | 34.15442 | -46.31161 | 38283 ft | 410 kts | 260° |
| 2026-05-05 17:17 | 34.14361 | -46.37855 | 38276 ft | 409 kts | 260° |
| 2026-05-05 17:18 | 34.13270 | -46.44590 | 38281 ft | 410 kts | 260° |
| 2026-05-05 17:18 | 34.12174 | -46.51311 | 38282 ft | 410 kts | 261° |
| 2026-05-05 17:19 | 34.11074 | -46.58049 | 38275 ft | 410 kts | 261° |
| 2026-05-05 17:19 | 34.09972 | -46.64784 | 38273 ft | 409 kts | 260° |
| 2026-05-05 17:20 | 34.08870 | -46.71479 | 38272 ft | 411 kts | 260° |
| 2026-05-05 17:20 | 34.07757 | -46.78230 | 38267 ft | 410 kts | 260° |
| 2026-05-05 17:21 | 34.06640 | -46.84964 | 38258 ft | 411 kts | 260° |
| 2026-05-05 17:22 | 34.04968 | -46.95026 | 38269 ft | 409 kts | 260° |
| 2026-05-05 17:22 | 34.03850 | -47.01714 | 38263 ft | 408 kts | 260° |
| 2026-05-05 17:23 | 34.02730 | -47.08400 | 38262 ft | 407 kts | 260° |
| 2026-05-05 17:23 | 34.01606 | -47.15070 | 38260 ft | 407 kts | 260° |
| 2026-05-05 17:24 | 34.00486 | -47.21707 | 38262 ft | 407 kts | 260° |
| 2026-05-05 17:24 | 33.99363 | -47.28341 | 38258 ft | 406 kts | 259° |
| 2026-05-05 17:25 | 33.98224 | -47.35034 | 38260 ft | 407 kts | 260° |
| 2026-05-05 17:25 | 33.97090 | -47.41679 | 38260 ft | 407 kts | 260° |
| 2026-05-05 17:26 | 33.95950 | -47.48338 | 38262 ft | 406 kts | 260° |
| 2026-05-05 17:26 | 33.94815 | -47.54946 | 38252 ft | 407 kts | 260° |
| 2026-05-05 17:27 | 33.93669 | -47.61607 | 38248 ft | 406 kts | 260° |
| 2026-05-05 17:27 | 33.92517 | -47.68256 | 38255 ft | 406 kts | 259° |
| 2026-05-05 17:28 | 33.91367 | -47.74887 | 38257 ft | 407 kts | 259° |
| 2026-05-05 17:28 | 33.90214 | -47.81512 | 38259 ft | 406 kts | 259° |
| 2026-05-05 17:29 | 33.89058 | -47.88132 | 38259 ft | 405 kts | 259° |
| 2026-05-05 17:29 | 33.87899 | -47.94741 | 38258 ft | 404 kts | 259° |
| 2026-05-05 17:30 | 33.86745 | -48.01303 | 38260 ft | 404 kts | 259° |
| 2026-05-05 17:30 | 33.85583 | -48.07894 | 38262 ft | 404 kts | 259° |
| 2026-05-05 17:31 | 33.84417 | -48.14483 | 38265 ft | 404 kts | 259° |
| 2026-05-05 17:31 | 33.83249 | -48.21062 | 38262 ft | 404 kts | 259° |
| 2026-05-05 17:32 | 33.82077 | -48.27640 | 38260 ft | 404 kts | 259° |
| 2026-05-05 17:32 | 33.80899 | -48.34231 | 38260 ft | 404 kts | 259° |
| 2026-05-05 17:33 | 33.79715 | -48.40828 | 38264 ft | 403 kts | 259° |
| 2026-05-05 17:33 | 33.78541 | -48.47356 | 38260 ft | 403 kts | 259° |
| 2026-05-05 17:34 | 33.77359 | -48.53902 | 38260 ft | 402 kts | 259° |
| 2026-05-05 17:34 | 33.76172 | -48.60462 | 38251 ft | 402 kts | 259° |
| 2026-05-05 17:35 | 33.74977 | -48.67035 | 38254 ft | 402 kts | 258° |
| 2026-05-05 17:35 | 33.73793 | -48.73537 | 38242 ft | 401 kts | 258° |
| 2026-05-05 17:36 | 33.72597 | -48.80080 | 38234 ft | 401 kts | 258° |
| 2026-05-05 17:36 | 33.71399 | -48.86612 | 38241 ft | 401 kts | 258° |
| 2026-05-05 17:37 | 33.70200 | -48.93131 | 38243 ft | 400 kts | 258° |
| 2026-05-05 17:37 | 33.69001 | -48.99631 | 38234 ft | 400 kts | 258° |
| 2026-05-05 17:38 | 33.67804 | -49.06107 | 38245 ft | 399 kts | 258° |
| 2026-05-05 17:38 | 33.66601 | -49.12579 | 38238 ft | 400 kts | 258° |
| 2026-05-05 17:39 | 33.65391 | -49.19070 | 38232 ft | 399 kts | 258° |
| 2026-05-05 17:39 | 33.64178 | -49.25573 | 38240 ft | 400 kts | 258° |
| 2026-05-05 17:40 | 33.62958 | -49.32083 | 38243 ft | 400 kts | 258° |
| 2026-05-05 17:40 | 33.61744 | -49.38539 | 38234 ft | 400 kts | 258° |
| 2026-05-05 17:41 | 33.60517 | -49.45032 | 38223 ft | 400 kts | 258° |
| 2026-05-05 17:41 | 33.59295 | -49.51501 | 38237 ft | 400 kts | 258° |
| 2026-05-05 17:42 | 33.58061 | -49.58004 | 38236 ft | 400 kts | 258° |
| 2026-05-05 17:42 | 33.56834 | -49.64463 | 38236 ft | 399 kts | 258° |
| 2026-05-05 17:43 | 33.55597 | -49.70932 | 38229 ft | 399 kts | 258° |
| 2026-05-05 17:43 | 33.54356 | -49.77413 | 38242 ft | 400 kts | 258° |
| 2026-05-05 17:44 | 33.53121 | -49.83847 | 38232 ft | 400 kts | 258° |
| 2026-05-05 17:44 | 33.51875 | -49.90313 | 38241 ft | 399 kts | 258° |
| 2026-05-05 17:45 | 33.50754 | -49.96828 | 38235 ft | 399 kts | 261° |
| 2026-05-05 17:45 | 33.50109 | -50.03415 | 38233 ft | 399 kts | 265° |
| 2026-05-05 17:46 | 33.49925 | -50.10009 | 38246 ft | 399 kts | 268° |
| 2026-05-05 17:46 | 33.49843 | -50.16659 | 38240 ft | 399 kts | 268° |
| 2026-05-05 17:47 | 33.49762 | -50.23244 | 38238 ft | 399 kts | 268° |
| 2026-05-05 17:47 | 33.49684 | -50.29876 | 38244 ft | 399 kts | 268° |
| 2026-05-05 17:48 | 33.49601 | -50.36512 | 38240 ft | 399 kts | 268° |
| 2026-05-05 17:48 | 33.49514 | -50.43120 | 38241 ft | 399 kts | 268° |
| 2026-05-05 17:49 | 33.49426 | -50.49734 | 38244 ft | 398 kts | 268° |
| 2026-05-05 17:49 | 33.49334 | -50.56342 | 38243 ft | 398 kts | 268° |
| 2026-05-05 17:50 | 33.49237 | -50.62936 | 38240 ft | 397 kts | 268° |
| 2026-05-05 17:50 | 33.49137 | -50.69561 | 38241 ft | 397 kts | 268° |
| 2026-05-05 17:51 | 33.49034 | -50.76142 | 38243 ft | 398 kts | 268° |
| 2026-05-05 17:51 | 33.48930 | -50.82745 | 38244 ft | 397 kts | 268° |
| 2026-05-05 17:52 | 33.48821 | -50.89310 | 38241 ft | 397 kts | 268° |
| 2026-05-05 17:52 | 33.48708 | -50.95893 | 38240 ft | 397 kts | 268° |
| 2026-05-05 17:53 | 33.48592 | -51.02515 | 38240 ft | 397 kts | 268° |
| 2026-05-05 17:53 | 33.48473 | -51.09068 | 38239 ft | 397 kts | 268° |
| 2026-05-05 17:54 | 33.48349 | -51.15644 | 38236 ft | 397 kts | 268° |
| 2026-05-05 17:54 | 33.48221 | -51.22236 | 38236 ft | 397 kts | 268° |
| 2026-05-05 17:55 | 33.48092 | -51.28831 | 38233 ft | 397 kts | 268° |
| 2026-05-05 17:55 | 33.47958 | -51.35404 | 38227 ft | 396 kts | 268° |
| 2026-05-05 17:56 | 33.47823 | -51.41972 | 38222 ft | 396 kts | 268° |
| 2026-05-05 17:56 | 33.47681 | -51.48528 | 38216 ft | 395 kts | 268° |
| 2026-05-05 17:57 | 33.47538 | -51.55087 | 38211 ft | 394 kts | 268° |
| 2026-05-05 17:57 | 33.47391 | -51.61641 | 38208 ft | 395 kts | 268° |
| 2026-05-05 17:58 | 33.47239 | -51.68201 | 38214 ft | 395 kts | 267° |
| 2026-05-05 17:58 | 33.47087 | -51.74718 | 38211 ft | 394 kts | 267° |
| 2026-05-05 17:59 | 33.46931 | -51.81274 | 38209 ft | 395 kts | 267° |
| 2026-05-05 17:59 | 33.46769 | -51.87838 | 38212 ft | 395 kts | 267° |
| 2026-05-05 18:00 | 33.46606 | -51.94373 | 38215 ft | 394 kts | 267° |
| 2026-05-05 18:00 | 33.46439 | -52.00896 | 38209 ft | 394 kts | 267° |
| 2026-05-05 18:01 | 33.46269 | -52.07436 | 38212 ft | 394 kts | 266° |
| 2026-05-05 18:01 | 33.46094 | -52.13985 | 38213 ft | 394 kts | 267° |
| 2026-05-05 18:02 | 33.45916 | -52.20490 | 38215 ft | 394 kts | 267° |
| 2026-05-05 18:02 | 33.45735 | -52.27049 | 38213 ft | 394 kts | 266° |
| 2026-05-05 18:03 | 33.45554 | -52.33530 | 38223 ft | 392 kts | 267° |
| 2026-05-05 18:03 | 33.45367 | -52.40032 | 38223 ft | 391 kts | 266° |
| 2026-05-05 18:04 | 33.45176 | -52.46562 | 38224 ft | 392 kts | 266° |
| 2026-05-05 18:04 | 33.44982 | -52.53045 | 38226 ft | 391 kts | 266° |
| 2026-05-05 18:05 | 33.44787 | -52.59507 | 38227 ft | 391 kts | 266° |
| 2026-05-05 18:05 | 33.44589 | -52.65987 | 38229 ft | 391 kts | 266° |
| 2026-05-05 18:06 | 33.44384 | -52.72478 | 38228 ft | 391 kts | 266° |
| 2026-05-05 18:06 | 33.44176 | -52.78980 | 38225 ft | 390 kts | 266° |
| 2026-05-05 18:07 | 33.43964 | -52.85456 | 38226 ft | 392 kts | 266° |
| 2026-05-05 18:07 | 33.43754 | -52.91938 | 38231 ft | 393 kts | 266° |
| 2026-05-05 18:08 | 33.43537 | -52.98438 | 38229 ft | 392 kts | 266° |
| 2026-05-05 18:08 | 33.43315 | -53.04941 | 38230 ft | 391 kts | 266° |
| 2026-05-05 18:09 | 33.43090 | -53.11442 | 38233 ft | 392 kts | 266° |
| 2026-05-05 18:09 | 33.42865 | -53.17925 | 38232 ft | 392 kts | 266° |
| 2026-05-05 18:10 | 33.42632 | -53.24452 | 38231 ft | 392 kts | 266° |
| 2026-05-05 18:10 | 33.42399 | -53.30936 | 38239 ft | 392 kts | 265° |
| 2026-05-05 18:11 | 33.42161 | -53.37427 | 38228 ft | 393 kts | 266° |
| 2026-05-05 18:11 | 33.41918 | -53.43950 | 38219 ft | 392 kts | 266° |
| 2026-05-05 18:12 | 33.41676 | -53.50441 | 38222 ft | 392 kts | 265° |
| 2026-05-05 18:12 | 33.41429 | -53.56911 | 38225 ft | 392 kts | 265° |
| 2026-05-05 18:13 | 33.41178 | -53.63435 | 38219 ft | 392 kts | 265° |
| 2026-05-05 18:13 | 33.40924 | -53.69887 | 38225 ft | 392 kts | 265° |
| 2026-05-05 18:14 | 33.40663 | -53.76413 | 38224 ft | 392 kts | 265° |
| 2026-05-05 18:14 | 33.40403 | -53.82878 | 38217 ft | 393 kts | 265° |
| 2026-05-05 18:15 | 33.40140 | -53.89389 | 38219 ft | 393 kts | 265° |
| 2026-05-05 18:15 | 33.39870 | -53.95908 | 38218 ft | 393 kts | 265° |
| 2026-05-05 18:16 | 33.39597 | -54.02460 | 38217 ft | 394 kts | 265° |
| 2026-05-05 18:16 | 33.39320 | -54.08975 | 38209 ft | 394 kts | 265° |
| 2026-05-05 18:17 | 33.39043 | -54.15477 | 38207 ft | 393 kts | 265° |
| 2026-05-05 18:17 | 33.38760 | -54.21975 | 38218 ft | 393 kts | 264° |
| 2026-05-05 18:18 | 33.38472 | -54.28527 | 38205 ft | 394 kts | 265° |
| 2026-05-05 18:18 | 33.38185 | -54.35037 | 38214 ft | 393 kts | 265° |
| 2026-05-05 18:19 | 33.37894 | -54.41505 | 38217 ft | 394 kts | 264° |
| 2026-05-05 18:19 | 33.37595 | -54.48002 | 38207 ft | 392 kts | 264° |
| 2026-05-05 18:20 | 33.37296 | -54.54518 | 38213 ft | 393 kts | 265° |
| 2026-05-05 18:20 | 33.36991 | -54.61005 | 38207 ft | 392 kts | 264° |
| 2026-05-05 18:21 | 33.36689 | -54.67483 | 38217 ft | 392 kts | 264° |
| 2026-05-05 18:21 | 33.36379 | -54.73984 | 38210 ft | 393 kts | 264° |
| 2026-05-05 18:22 | 33.36068 | -54.80482 | 38212 ft | 393 kts | 264° |
| 2026-05-05 18:22 | 33.35751 | -54.86990 | 38212 ft | 393 kts | 264° |
| 2026-05-05 18:23 | 33.35432 | -54.93511 | 38211 ft | 394 kts | 264° |
| 2026-05-05 18:23 | 33.35108 | -55.00001 | 38215 ft | 394 kts | 264° |
| 2026-05-05 18:24 | 33.34780 | -55.06544 | 38219 ft | 394 kts | 264° |
| 2026-05-05 18:24 | 33.34450 | -55.13059 | 38220 ft | 395 kts | 264° |
| 2026-05-05 18:25 | 33.34113 | -55.19594 | 38225 ft | 394 kts | 264° |
| 2026-05-05 18:25 | 33.33779 | -55.26094 | 38226 ft | 394 kts | 264° |
| 2026-05-05 18:26 | 33.33437 | -55.32618 | 38226 ft | 395 kts | 263° |
| 2026-05-05 18:26 | 33.33087 | -55.39180 | 38226 ft | 396 kts | 264° |
| 2026-05-05 18:27 | 33.32737 | -55.45715 | 38216 ft | 396 kts | 264° |
| 2026-05-05 18:27 | 33.32387 | -55.52281 | 38229 ft | 396 kts | 263° |
| 2026-05-05 18:28 | 33.31849 | -55.62122 | 38212 ft | 397 kts | 264° |
| 2026-05-05 18:28 | 33.31487 | -55.68674 | 38229 ft | 396 kts | 264° |
| 2026-05-05 18:29 | 33.31121 | -55.75230 | 38223 ft | 399 kts | 264° |
| 2026-05-05 18:29 | 33.30750 | -55.81823 | 38233 ft | 399 kts | 263° |
| 2026-05-05 18:30 | 33.30376 | -55.88438 | 38231 ft | 400 kts | 264° |
| 2026-05-05 18:30 | 33.29999 | -55.95015 | 38227 ft | 400 kts | 263° |
| 2026-05-05 18:31 | 33.29615 | -56.01611 | 38227 ft | 400 kts | 263° |
| 2026-05-05 18:31 | 33.29235 | -56.08212 | 38220 ft | 400 kts | 263° |
| 2026-05-05 18:32 | 33.28843 | -56.14811 | 38217 ft | 399 kts | 263° |
| 2026-05-05 18:32 | 33.28452 | -56.21411 | 38211 ft | 398 kts | 263° |
| 2026-05-05 18:33 | 33.28059 | -56.27989 | 38209 ft | 397 kts | 263° |
| 2026-05-05 18:33 | 33.27660 | -56.34523 | 38214 ft | 397 kts | 263° |
| 2026-05-05 18:34 | 33.27260 | -56.41078 | 38216 ft | 397 kts | 263° |
| 2026-05-05 18:34 | 33.26860 | -56.47619 | 38218 ft | 397 kts | 262° |
| 2026-05-05 18:35 | 33.26453 | -56.54176 | 38219 ft | 396 kts | 262° |
| 2026-05-05 18:35 | 33.26042 | -56.60710 | 38217 ft | 396 kts | 262° |
| 2026-05-05 18:36 | 33.25626 | -56.67287 | 38221 ft | 397 kts | 261° |
| 2026-05-05 18:36 | 33.25206 | -56.73840 | 38222 ft | 395 kts | 262° |
| 2026-05-05 18:37 | 33.24785 | -56.80362 | 38222 ft | 394 kts | 261° |
| 2026-05-05 18:37 | 33.24368 | -56.86863 | 38221 ft | 395 kts | 261° |
| 2026-05-05 18:38 | 33.23939 | -56.93388 | 38224 ft | 394 kts | 261° |
| 2026-05-05 18:38 | 33.23510 | -56.99898 | 38216 ft | 394 kts | 261° |
| 2026-05-05 18:39 | 33.23081 | -57.06380 | 38208 ft | 393 kts | 262° |
| 2026-05-05 18:39 | 33.22649 | -57.12846 | 38209 ft | 394 kts | 261° |
| 2026-05-05 18:40 | 33.22209 | -57.19357 | 38204 ft | 393 kts | 261° |
| 2026-05-05 18:40 | 33.21772 | -57.25832 | 38202 ft | 393 kts | 260° |
| 2026-05-05 18:41 | 33.21328 | -57.32324 | 38204 ft | 394 kts | 260° |
| 2026-05-05 18:41 | 33.20876 | -57.38800 | 38204 ft | 392 kts | 261° |
| 2026-05-05 18:42 | 33.20428 | -57.45299 | 38199 ft | 393 kts | 261° |
| 2026-05-05 18:42 | 33.19971 | -57.51781 | 38204 ft | 392 kts | 260° |
| 2026-05-05 18:43 | 33.19516 | -57.58213 | 38196 ft | 393 kts | 260° |
| 2026-05-05 18:43 | 33.19055 | -57.64693 | 38201 ft | 393 kts | 260° |
| 2026-05-05 18:44 | 33.18591 | -57.71173 | 38199 ft | 393 kts | 259° |
| 2026-05-05 18:44 | 33.18124 | -57.77663 | 38202 ft | 392 kts | 260° |
| 2026-05-05 18:45 | 33.17656 | -57.84117 | 38205 ft | 391 kts | 259° |
| 2026-05-05 18:45 | 33.17183 | -57.90561 | 38199 ft | 391 kts | 259° |
| 2026-05-05 18:46 | 33.16708 | -57.96984 | 38199 ft | 392 kts | 259° |
| 2026-05-05 18:46 | 33.16228 | -58.03434 | 38201 ft | 390 kts | 259° |
| 2026-05-05 18:47 | 33.15751 | -58.09837 | 38201 ft | 389 kts | 259° |
| 2026-05-05 18:47 | 33.15265 | -58.16292 | 38199 ft | 390 kts | 259° |
| 2026-05-05 18:48 | 33.14781 | -58.22697 | 38193 ft | 390 kts | 259° |
| 2026-05-05 18:48 | 33.14290 | -58.29112 | 38190 ft | 389 kts | 259° |
| 2026-05-05 18:49 | 33.13799 | -58.35524 | 38187 ft | 390 kts | 259° |
| 2026-05-05 18:49 | 33.13297 | -58.41988 | 38190 ft | 390 kts | 259° |
| 2026-05-05 18:50 | 33.12801 | -58.48375 | 38185 ft | 389 kts | 259° |
| 2026-05-05 18:50 | 33.12297 | -58.54793 | 38183 ft | 389 kts | 259° |
| 2026-05-05 18:51 | 33.11797 | -58.61163 | 38193 ft | 389 kts | 259° |
| 2026-05-05 18:51 | 33.11286 | -58.67565 | 38191 ft | 388 kts | 259° |
| 2026-05-05 18:52 | 33.10775 | -58.73980 | 38187 ft | 388 kts | 259° |
| 2026-05-05 18:52 | 33.10265 | -58.80329 | 38181 ft | 387 kts | 258° |
| 2026-05-05 18:53 | 33.09751 | -58.86686 | 38184 ft | 387 kts | 259° |
| 2026-05-05 18:53 | 33.09227 | -58.93102 | 38184 ft | 389 kts | 258° |
| 2026-05-05 18:54 | 33.08702 | -58.99483 | 38181 ft | 388 kts | 258° |
| 2026-05-05 18:54 | 33.08179 | -59.05860 | 38177 ft | 388 kts | 258° |
| 2026-05-05 18:55 | 33.07652 | -59.12226 | 38182 ft | 388 kts | 258° |
| 2026-05-05 18:55 | 33.07111 | -59.18646 | 38175 ft | 389 kts | 258° |
| 2026-05-05 18:56 | 33.06574 | -59.24991 | 38173 ft | 388 kts | 258° |
| 2026-05-05 18:56 | 33.06033 | -59.31397 | 38165 ft | 389 kts | 258° |
| 2026-05-05 18:57 | 33.05490 | -59.37768 | 38166 ft | 388 kts | 258° |
| 2026-05-05 18:57 | 33.04942 | -59.44157 | 38161 ft | 389 kts | 258° |
| 2026-05-05 18:58 | 33.04390 | -59.50534 | 38158 ft | 388 kts | 258° |
| 2026-05-05 18:58 | 33.03840 | -59.56906 | 38158 ft | 388 kts | 258° |
| 2026-05-05 18:59 | 33.03283 | -59.63290 | 38150 ft | 389 kts | 258° |
| 2026-05-05 18:59 | 33.02723 | -59.69691 | 38154 ft | 389 kts | 257° |
| 2026-05-05 19:00 | 33.02161 | -59.76049 | 38151 ft | 388 kts | 257° |
| 2026-05-05 19:00 | 33.01590 | -59.82465 | 38149 ft | 389 kts | 257° |
| 2026-05-05 19:01 | 33.01020 | -59.88833 | 38142 ft | 390 kts | 257° |
| 2026-05-05 19:01 | 33.00396 | -59.95265 | 38138 ft | 389 kts | 255° |
| 2026-05-05 19:02 | 32.99379 | -60.01512 | 38137 ft | 386 kts | 251° |
| 2026-05-05 19:02 | 32.97911 | -60.07614 | 38137 ft | 383 kts | 247° |
| 2026-05-05 19:03 | 32.96279 | -60.13659 | 38136 ft | 382 kts | 248° |
| 2026-05-05 19:03 | 32.94664 | -60.19638 | 38137 ft | 383 kts | 247° |
| 2026-05-05 19:04 | 32.93031 | -60.25644 | 38137 ft | 382 kts | 247° |
| 2026-05-05 19:04 | 32.91399 | -60.31635 | 38134 ft | 383 kts | 246° |
| 2026-05-05 19:05 | 32.89746 | -60.37666 | 38137 ft | 383 kts | 247° |
| 2026-05-05 19:05 | 32.88098 | -60.43684 | 38138 ft | 384 kts | 246° |
| 2026-05-05 19:06 | 32.86436 | -60.49729 | 38140 ft | 385 kts | 247° |
| 2026-05-05 19:06 | 32.84785 | -60.55716 | 38138 ft | 384 kts | 246° |
| 2026-05-05 19:07 | 32.83120 | -60.61755 | 38136 ft | 385 kts | 246° |
| 2026-05-05 19:07 | 32.81451 | -60.67766 | 38140 ft | 384 kts | 246° |
| 2026-05-05 19:08 | 32.79781 | -60.73801 | 38139 ft | 383 kts | 246° |
| 2026-05-05 19:08 | 32.78115 | -60.79803 | 38130 ft | 384 kts | 246° |
| 2026-05-05 19:09 | 32.76453 | -60.85784 | 38129 ft | 385 kts | 246° |
| 2026-05-05 19:09 | 32.74765 | -60.91827 | 38122 ft | 385 kts | 246° |
| 2026-05-05 19:10 | 32.73087 | -60.97832 | 38123 ft | 386 kts | 246° |
| 2026-05-05 19:10 | 32.71385 | -61.03900 | 38120 ft | 386 kts | 246° |
| 2026-05-05 19:11 | 32.69691 | -61.09925 | 38121 ft | 386 kts | 246° |
| 2026-05-05 19:11 | 32.67998 | -61.15935 | 38116 ft | 386 kts | 246° |
| 2026-05-05 19:12 | 32.66420 | -61.22049 | 38118 ft | 390 kts | 248° |
| 2026-05-05 19:12 | 32.64961 | -61.28218 | 38113 ft | 389 kts | 248° |
| 2026-05-05 19:13 | 32.63501 | -61.34377 | 38111 ft | 391 kts | 249° |
| 2026-05-05 19:13 | 32.62029 | -61.40582 | 38107 ft | 390 kts | 248° |
| 2026-05-05 19:14 | 32.60569 | -61.46725 | 38109 ft | 391 kts | 249° |
| 2026-05-05 19:14 | 32.59091 | -61.52926 | 38113 ft | 390 kts | 249° |
| 2026-05-05 19:15 | 32.57627 | -61.59065 | 38111 ft | 391 kts | 249° |
| 2026-05-05 19:15 | 32.56144 | -61.65251 | 38109 ft | 392 kts | 248° |
| 2026-05-05 19:16 | 32.54599 | -61.71389 | 38108 ft | 389 kts | 246° |
| 2026-05-05 19:16 | 32.52869 | -61.77441 | 38103 ft | 390 kts | 245° |
| 2026-05-05 19:17 | 32.51126 | -61.83528 | 38104 ft | 389 kts | 246° |
| 2026-05-05 19:17 | 32.49394 | -61.89571 | 38108 ft | 390 kts | 245° |
| 2026-05-05 19:18 | 32.47649 | -61.95626 | 38102 ft | 389 kts | 246° |
| 2026-05-05 19:18 | 32.45903 | -62.01683 | 38105 ft | 390 kts | 245° |
| 2026-05-05 19:19 | 32.44159 | -62.07715 | 38102 ft | 390 kts | 245° |
| 2026-05-05 19:19 | 32.42405 | -62.13766 | 38101 ft | 390 kts | 245° |
| 2026-05-05 19:20 | 32.40643 | -62.19833 | 38109 ft | 391 kts | 245° |
| 2026-05-05 19:20 | 32.38873 | -62.25913 | 38104 ft | 391 kts | 246° |
| 2026-05-05 19:21 | 32.37102 | -62.31984 | 38111 ft | 390 kts | 246° |
| 2026-05-05 19:21 | 32.35345 | -62.38005 | 38111 ft | 390 kts | 246° |
| 2026-05-05 19:22 | 32.33571 | -62.44068 | 38107 ft | 390 kts | 246° |
| 2026-05-05 19:22 | 32.31798 | -62.50113 | 38105 ft | 391 kts | 246° |
| 2026-05-05 19:23 | 32.30016 | -62.56177 | 38106 ft | 391 kts | 246° |
| 2026-05-05 19:23 | 32.28240 | -62.62204 | 38103 ft | 391 kts | 246° |
| 2026-05-05 19:24 | 32.26459 | -62.68239 | 38107 ft | 391 kts | 246° |
| 2026-05-05 19:24 | 32.24668 | -62.74293 | 38103 ft | 390 kts | 246° |
| 2026-05-05 19:25 | 32.22887 | -62.80310 | 38100 ft | 391 kts | 246° |
| 2026-05-05 19:25 | 32.21085 | -62.86382 | 38105 ft | 391 kts | 246° |
| 2026-05-05 19:26 | 32.19295 | -62.92397 | 38103 ft | 391 kts | 246° |
| 2026-05-05 19:26 | 32.17493 | -62.98442 | 38105 ft | 390 kts | 246° |
| 2026-05-05 19:27 | 32.15688 | -63.04487 | 38097 ft | 391 kts | 246° |
| 2026-05-05 19:27 | 32.13889 | -63.10500 | 38102 ft | 391 kts | 246° |
| 2026-05-05 19:28 | 32.12078 | -63.16547 | 38097 ft | 392 kts | 246° |
| 2026-05-05 19:28 | 32.10263 | -63.22583 | 38102 ft | 392 kts | 246° |
| 2026-05-05 19:29 | 32.08443 | -63.28626 | 38098 ft | 393 kts | 246° |
| 2026-05-05 19:29 | 32.06615 | -63.34691 | 38097 ft | 392 kts | 246° |
| 2026-05-05 19:30 | 32.04802 | -63.40692 | 38100 ft | 392 kts | 246° |
| 2026-05-05 19:30 | 32.02970 | -63.46741 | 38102 ft | 392 kts | 247° |
| 2026-05-05 19:31 | 32.01138 | -63.52786 | 38103 ft | 392 kts | 246° |
| 2026-05-05 19:31 | 31.99300 | -63.58832 | 38106 ft | 392 kts | 246° |
| 2026-05-05 19:32 | 31.97462 | -63.64862 | 38109 ft | 392 kts | 246° |
| 2026-05-05 19:32 | 31.95632 | -63.70863 | 38110 ft | 392 kts | 246° |
| 2026-05-05 19:33 | 31.93789 | -63.76887 | 38106 ft | 392 kts | 246° |
| 2026-05-05 19:33 | 31.91932 | -63.82944 | 38107 ft | 393 kts | 246° |
| 2026-05-05 19:34 | 31.90085 | -63.88969 | 38107 ft | 393 kts | 246° |
| 2026-05-05 19:35 | 31.87308 | -63.97987 | 38103 ft | 393 kts | 246° |
| 2026-05-05 19:35 | 31.85443 | -64.04041 | 38115 ft | 394 kts | 246° |
| 2026-05-05 19:36 | 31.83573 | -64.10085 | 38109 ft | 394 kts | 246° |
| 2026-05-05 19:36 | 31.81719 | -64.16074 | 38113 ft | 394 kts | 246° |
| 2026-05-05 19:37 | 31.79837 | -64.22144 | 38116 ft | 394 kts | 246° |
| 2026-05-05 19:37 | 31.77965 | -64.28167 | 38116 ft | 395 kts | 246° |
| 2026-05-05 19:38 | 31.76090 | -64.34184 | 38110 ft | 395 kts | 246° |
| 2026-05-05 19:38 | 31.74199 | -64.40252 | 38107 ft | 395 kts | 246° |
| 2026-05-05 19:39 | 31.72310 | -64.46285 | 38105 ft | 395 kts | 247° |
| 2026-05-05 19:39 | 31.70417 | -64.52335 | 38110 ft | 396 kts | 246° |
| 2026-05-05 19:40 | 31.68526 | -64.58356 | 38110 ft | 396 kts | 247° |
| 2026-05-05 19:40 | 31.66626 | -64.64401 | 38105 ft | 396 kts | 247° |
| 2026-05-05 19:41 | 31.64724 | -64.70437 | 38115 ft | 395 kts | 246° |
| 2026-05-05 19:41 | 31.62814 | -64.76491 | 38113 ft | 396 kts | 246° |
| 2026-05-05 19:42 | 31.60909 | -64.82514 | 38112 ft | 396 kts | 246° |
| 2026-05-05 19:42 | 31.59003 | -64.88534 | 38111 ft | 396 kts | 246° |
| 2026-05-05 19:43 | 31.57075 | -64.94607 | 38114 ft | 396 kts | 246° |
| 2026-05-05 19:43 | 31.55162 | -65.00620 | 38119 ft | 397 kts | 246° |
| 2026-05-05 19:44 | 31.53237 | -65.06656 | 38116 ft | 396 kts | 247° |
| 2026-05-05 19:44 | 31.51320 | -65.12670 | 38121 ft | 396 kts | 246° |
| 2026-05-05 19:45 | 31.49389 | -65.18709 | 38116 ft | 396 kts | 246° |
| 2026-05-05 19:45 | 31.47457 | -65.24735 | 38117 ft | 396 kts | 247° |
| 2026-05-05 19:46 | 31.45523 | -65.30753 | 38117 ft | 396 kts | 246° |
| 2026-05-05 19:46 | 31.43584 | -65.36782 | 38121 ft | 397 kts | 246° |
| 2026-05-05 19:47 | 31.41638 | -65.42826 | 38123 ft | 396 kts | 246° |
| 2026-05-05 19:47 | 31.39701 | -65.48834 | 38124 ft | 396 kts | 246° |
| 2026-05-05 19:48 | 31.37757 | -65.54842 | 38123 ft | 397 kts | 246° |
| 2026-05-05 19:48 | 31.35807 | -65.60861 | 38128 ft | 396 kts | 246° |
| 2026-05-05 19:49 | 31.33849 | -65.66886 | 38128 ft | 397 kts | 246° |
| 2026-05-05 19:49 | 31.31892 | -65.72906 | 38123 ft | 396 kts | 246° |
| 2026-05-05 19:50 | 31.29931 | -65.78919 | 38127 ft | 396 kts | 246° |
| 2026-05-05 19:50 | 31.27974 | -65.84922 | 38129 ft | 397 kts | 246° |
| 2026-05-05 19:51 | 31.26016 | -65.90907 | 38125 ft | 396 kts | 246° |
| 2026-05-05 19:51 | 31.24048 | -65.96911 | 38128 ft | 396 kts | 246° |
| 2026-05-05 19:52 | 31.22094 | -66.02863 | 38124 ft | 396 kts | 246° |
| 2026-05-05 19:52 | 31.20116 | -66.08875 | 38119 ft | 395 kts | 246° |
| 2026-05-05 19:53 | 31.18147 | -66.14856 | 38122 ft | 396 kts | 246° |
| 2026-05-05 19:53 | 31.16180 | -66.20812 | 38119 ft | 396 kts | 246° |
| 2026-05-05 19:54 | 31.14197 | -66.26813 | 38122 ft | 395 kts | 246° |
| 2026-05-05 19:54 | 31.12223 | -66.32773 | 38120 ft | 396 kts | 247° |
| 2026-05-05 19:55 | 31.10243 | -66.38739 | 38122 ft | 396 kts | 247° |
| 2026-05-05 19:55 | 31.08261 | -66.44704 | 38124 ft | 397 kts | 246° |
| 2026-05-05 19:56 | 31.06261 | -66.50710 | 38125 ft | 397 kts | 246° |
| 2026-05-05 19:56 | 31.04264 | -66.56693 | 38125 ft | 397 kts | 246° |
| 2026-05-05 19:57 | 31.02261 | -66.62683 | 38129 ft | 398 kts | 246° |
| 2026-05-05 19:57 | 31.00252 | -66.68684 | 38126 ft | 398 kts | 246° |
| 2026-05-05 19:58 | 30.98248 | -66.74658 | 38125 ft | 398 kts | 246° |
| 2026-05-05 19:58 | 30.96230 | -66.80658 | 38126 ft | 398 kts | 246° |
| 2026-05-05 19:59 | 30.94223 | -66.86616 | 38128 ft | 399 kts | 246° |
| 2026-05-05 19:59 | 30.92199 | -66.92622 | 38128 ft | 398 kts | 246° |
| 2026-05-05 20:00 | 30.90175 | -66.98616 | 38134 ft | 400 kts | 246° |
| 2026-05-05 20:00 | 30.88137 | -67.04638 | 38131 ft | 399 kts | 246° |
| 2026-05-05 20:01 | 30.86105 | -67.10633 | 38130 ft | 400 kts | 246° |
| 2026-05-05 20:01 | 30.84071 | -67.16621 | 38132 ft | 401 kts | 246° |
| 2026-05-05 20:02 | 30.82018 | -67.22652 | 38129 ft | 401 kts | 246° |
| 2026-05-05 20:02 | 30.79972 | -67.28651 | 38132 ft | 401 kts | 246° |
| 2026-05-05 20:03 | 30.77910 | -67.34690 | 38131 ft | 400 kts | 246° |
| 2026-05-05 20:03 | 30.75859 | -67.40682 | 38132 ft | 401 kts | 247° |
| 2026-05-05 20:04 | 30.73801 | -67.46687 | 38131 ft | 402 kts | 247° |
| 2026-05-05 20:04 | 30.71738 | -67.52695 | 38134 ft | 402 kts | 247° |
| 2026-05-05 20:05 | 30.69583 | -67.58642 | 38127 ft | 401 kts | 244° |
| 2026-05-05 20:05 | 30.66989 | -67.64367 | 38131 ft | 401 kts | 239° |
| 2026-05-05 20:06 | 30.64113 | -67.69872 | 38133 ft | 402 kts | 238° |
| 2026-05-05 20:06 | 30.61213 | -67.75402 | 38131 ft | 401 kts | 238° |
| 2026-05-05 20:07 | 30.58303 | -67.80933 | 38134 ft | 401 kts | 238° |
| 2026-05-05 20:07 | 30.55417 | -67.86410 | 38135 ft | 401 kts | 238° |
| 2026-05-05 20:08 | 30.52516 | -67.91908 | 38133 ft | 400 kts | 238° |
| 2026-05-05 20:08 | 30.49608 | -67.97399 | 38133 ft | 400 kts | 238° |
| 2026-05-05 20:09 | 30.46702 | -68.02887 | 38134 ft | 400 kts | 238° |
| 2026-05-05 20:09 | 30.43796 | -68.08369 | 38135 ft | 400 kts | 238° |
| 2026-05-05 20:10 | 30.40879 | -68.13854 | 38134 ft | 401 kts | 238° |
| 2026-05-05 20:10 | 30.37969 | -68.19329 | 38134 ft | 402 kts | 238° |
| 2026-05-05 20:11 | 30.35040 | -68.24824 | 38136 ft | 403 kts | 238° |
| 2026-05-05 20:11 | 30.32099 | -68.30343 | 38130 ft | 403 kts | 238° |
| 2026-05-05 20:12 | 30.29177 | -68.35809 | 38131 ft | 403 kts | 238° |
| 2026-05-05 20:12 | 30.26225 | -68.41328 | 38135 ft | 403 kts | 238° |
| 2026-05-05 20:13 | 30.23284 | -68.46817 | 38135 ft | 403 kts | 238° |
| 2026-05-05 20:13 | 30.20346 | -68.52299 | 38134 ft | 403 kts | 238° |
| 2026-05-05 20:14 | 30.17384 | -68.57808 | 38135 ft | 404 kts | 239° |
| 2026-05-05 20:14 | 30.14419 | -68.63323 | 38135 ft | 405 kts | 238° |
| 2026-05-05 20:15 | 30.11454 | -68.68825 | 38138 ft | 405 kts | 238° |
| 2026-05-05 20:15 | 30.08490 | -68.74320 | 38136 ft | 404 kts | 239° |
| 2026-05-05 20:16 | 30.05512 | -68.79839 | 38137 ft | 404 kts | 239° |
| 2026-05-05 20:16 | 30.02555 | -68.85310 | 38136 ft | 405 kts | 238° |
| 2026-05-05 20:17 | 29.99577 | -68.90807 | 38136 ft | 405 kts | 238° |
| 2026-05-05 20:17 | 29.96583 | -68.96328 | 38136 ft | 405 kts | 238° |
| 2026-05-05 20:18 | 29.93589 | -69.01839 | 38132 ft | 406 kts | 239° |
| 2026-05-05 20:18 | 29.90605 | -69.07327 | 38129 ft | 405 kts | 239° |
| 2026-05-05 20:19 | 29.87614 | -69.12818 | 38128 ft | 406 kts | 239° |
| 2026-05-05 20:19 | 29.84613 | -69.18323 | 38127 ft | 406 kts | 239° |
| 2026-05-05 20:20 | 29.81608 | -69.23826 | 38129 ft | 407 kts | 239° |
| 2026-05-05 20:20 | 29.78619 | -69.29296 | 38122 ft | 408 kts | 239° |
| 2026-05-05 20:21 | 29.75581 | -69.34840 | 38119 ft | 409 kts | 239° |
| 2026-05-05 20:21 | 29.72561 | -69.40352 | 38128 ft | 408 kts | 239° |
| 2026-05-05 20:22 | 29.69536 | -69.45865 | 38128 ft | 409 kts | 239° |
| 2026-05-05 20:22 | 29.66515 | -69.51357 | 38130 ft | 408 kts | 239° |
| 2026-05-05 20:23 | 29.63489 | -69.56857 | 38132 ft | 408 kts | 239° |
| 2026-05-05 20:23 | 29.60445 | -69.62374 | 38125 ft | 409 kts | 239° |
| 2026-05-05 20:24 | 29.57412 | -69.67866 | 38129 ft | 409 kts | 239° |
| 2026-05-05 20:24 | 29.54358 | -69.73398 | 38123 ft | 409 kts | 239° |
| 2026-05-05 20:25 | 29.51310 | -69.78902 | 38116 ft | 411 kts | 239° |
| 2026-05-05 20:25 | 29.48268 | -69.84396 | 38117 ft | 411 kts | 240° |
| 2026-05-05 20:26 | 29.45192 | -69.89938 | 38123 ft | 411 kts | 240° |
| 2026-05-05 20:26 | 29.42143 | -69.95425 | 38115 ft | 411 kts | 240° |
| 2026-05-05 20:27 | 29.39053 | -70.00980 | 38119 ft | 412 kts | 240° |
| 2026-05-05 20:27 | 29.35980 | -70.06489 | 38120 ft | 413 kts | 240° |
| 2026-05-05 20:28 | 29.32894 | -70.12021 | 38122 ft | 412 kts | 240° |
| 2026-05-05 20:28 | 29.29814 | -70.17535 | 38121 ft | 412 kts | 240° |
| 2026-05-05 20:29 | 29.26719 | -70.23067 | 38122 ft | 414 kts | 240° |
| 2026-05-05 20:29 | 29.23630 | -70.28584 | 38118 ft | 414 kts | 240° |
| 2026-05-05 20:30 | 29.20511 | -70.34141 | 38119 ft | 414 kts | 240° |
| 2026-05-05 20:30 | 29.17412 | -70.39661 | 38119 ft | 414 kts | 240° |
| 2026-05-05 20:31 | 29.14313 | -70.45167 | 38117 ft | 415 kts | 241° |
| 2026-05-05 20:31 | 29.11198 | -70.50700 | 38119 ft | 415 kts | 241° |
| 2026-05-05 20:32 | 29.08079 | -70.56232 | 38118 ft | 415 kts | 241° |
| 2026-05-05 20:32 | 29.04939 | -70.61792 | 38114 ft | 416 kts | 241° |
| 2026-05-05 20:33 | 29.01818 | -70.67310 | 38119 ft | 416 kts | 240° |
| 2026-05-05 20:33 | 28.98682 | -70.72849 | 38115 ft | 416 kts | 241° |
| 2026-05-05 20:34 | 28.95529 | -70.78410 | 38117 ft | 416 kts | 241° |
| 2026-05-05 20:34 | 28.92402 | -70.83919 | 38115 ft | 416 kts | 241° |
| 2026-05-05 20:35 | 28.89258 | -70.89451 | 38110 ft | 416 kts | 242° |
| 2026-05-05 20:35 | 28.86109 | -70.94984 | 38111 ft | 417 kts | 242° |
| 2026-05-05 20:36 | 28.82993 | -71.00548 | 38111 ft | 416 kts | 243° |
| 2026-05-05 20:36 | 28.79941 | -71.06113 | 38109 ft | 417 kts | 243° |
| 2026-05-05 20:37 | 28.76850 | -71.11730 | 38108 ft | 417 kts | 243° |
| 2026-05-05 20:37 | 28.73776 | -71.17298 | 38105 ft | 417 kts | 243° |
| 2026-05-05 20:38 | 28.70695 | -71.22876 | 38104 ft | 417 kts | 242° |
| 2026-05-05 20:38 | 28.67612 | -71.28443 | 38101 ft | 418 kts | 243° |
| 2026-05-05 20:39 | 28.64516 | -71.34029 | 38094 ft | 417 kts | 243° |
| 2026-05-05 20:39 | 28.61425 | -71.39596 | 38094 ft | 417 kts | 243° |
| 2026-05-05 20:40 | 28.58334 | -71.45159 | 38092 ft | 418 kts | 243° |
| 2026-05-05 20:40 | 28.55218 | -71.50755 | 38090 ft | 417 kts | 243° |
| 2026-05-05 20:41 | 28.52116 | -71.56319 | 38088 ft | 418 kts | 243° |
| 2026-05-05 20:41 | 28.49009 | -71.61888 | 38089 ft | 417 kts | 243° |
| 2026-05-05 20:42 | 28.45918 | -71.67419 | 38097 ft | 418 kts | 243° |
| 2026-05-05 20:42 | 28.42792 | -71.73002 | 38085 ft | 419 kts | 243° |
| 2026-05-05 20:43 | 28.39678 | -71.78565 | 38086 ft | 419 kts | 243° |
| 2026-05-05 20:43 | 28.36560 | -71.84119 | 38079 ft | 418 kts | 243° |
| 2026-05-05 20:44 | 28.33435 | -71.89682 | 38086 ft | 418 kts | 243° |
| 2026-05-05 20:44 | 28.30297 | -71.95195 | 38084 ft | 419 kts | 242° |
| 2026-05-05 20:45 | 28.25490 | -72.03475 | 38081 ft | 420 kts | 243° |
| 2026-05-05 20:45 | 28.22279 | -72.09006 | 38085 ft | 419 kts | 243° |
| 2026-05-05 20:46 | 28.19086 | -72.14497 | 38079 ft | 419 kts | 243° |
| 2026-05-05 20:46 | 28.15873 | -72.20017 | 38082 ft | 419 kts | 243° |
| 2026-05-05 20:47 | 28.12665 | -72.25523 | 38077 ft | 420 kts | 243° |
| 2026-05-05 20:47 | 28.09459 | -72.31019 | 38083 ft | 421 kts | 243° |
| 2026-05-05 20:48 | 28.06234 | -72.36542 | 38073 ft | 421 kts | 243° |
| 2026-05-05 20:48 | 28.02991 | -72.42087 | 38079 ft | 422 kts | 243° |
| 2026-05-05 20:49 | 27.99768 | -72.47592 | 38075 ft | 422 kts | 244° |
| 2026-05-05 20:49 | 27.96536 | -72.53108 | 38073 ft | 422 kts | 244° |
| 2026-05-05 20:50 | 27.93295 | -72.58630 | 38072 ft | 422 kts | 244° |
| 2026-05-05 20:50 | 27.90057 | -72.64133 | 38072 ft | 423 kts | 244° |
| 2026-05-05 20:51 | 27.86802 | -72.69664 | 38072 ft | 423 kts | 244° |
| 2026-05-05 20:51 | 27.83553 | -72.75182 | 38070 ft | 423 kts | 244° |
| 2026-05-05 20:52 | 27.80275 | -72.80732 | 38071 ft | 425 kts | 244° |
| 2026-05-05 20:52 | 27.77014 | -72.86251 | 38070 ft | 424 kts | 244° |
| 2026-05-05 20:53 | 27.73745 | -72.91779 | 38067 ft | 424 kts | 244° |
| 2026-05-05 20:53 | 27.70469 | -72.97308 | 38068 ft | 423 kts | 245° |
| 2026-05-05 20:54 | 27.67197 | -73.02828 | 38069 ft | 426 kts | 244° |
| 2026-05-05 20:54 | 27.63914 | -73.08357 | 38068 ft | 426 kts | 245° |
| 2026-05-05 20:55 | 27.60620 | -73.13895 | 38063 ft | 427 kts | 245° |
| 2026-05-05 20:55 | 27.57319 | -73.19441 | 38060 ft | 426 kts | 245° |
| 2026-05-05 20:56 | 27.53991 | -73.25025 | 38461 ft | 428 kts | 245° |
| 2026-05-05 20:56 | 27.52340 | -73.27788 | 38801 ft | 426 kts | 246° |
| 2026-05-05 20:56 | 27.50696 | -73.30535 | 39064 ft | 426 kts | 246° |
| 2026-05-05 20:57 | 27.49032 | -73.33323 | 39310 ft | 427 kts | 246° |
| 2026-05-05 20:57 | 27.47390 | -73.36073 | 39606 ft | 426 kts | 246° |
| 2026-05-05 20:57 | 27.45743 | -73.38831 | 39856 ft | 426 kts | 246° |
| 2026-05-05 20:57 | 27.44101 | -73.41581 | 40050 ft | 427 kts | 246° |
| 2026-05-05 20:58 | 27.40760 | -73.47160 | 40055 ft | 426 kts | 246° |
| 2026-05-05 20:58 | 27.37447 | -73.52676 | 40059 ft | 427 kts | 246° |
| 2026-05-05 20:59 | 27.34148 | -73.58170 | 40057 ft | 427 kts | 246° |
| 2026-05-05 20:59 | 27.30807 | -73.63726 | 40057 ft | 427 kts | 246° |
| 2026-05-05 21:00 | 27.27482 | -73.69249 | 40059 ft | 428 kts | 246° |
| 2026-05-05 21:00 | 27.24141 | -73.74792 | 40055 ft | 428 kts | 246° |
| 2026-05-05 21:01 | 27.20826 | -73.80289 | 40054 ft | 428 kts | 246° |
| 2026-05-05 21:01 | 27.17489 | -73.85807 | 40055 ft | 428 kts | 246° |
| 2026-05-05 21:02 | 27.14143 | -73.91331 | 40053 ft | 429 kts | 246° |
| 2026-05-05 21:02 | 27.10765 | -73.96913 | 40056 ft | 430 kts | 246° |
| 2026-05-05 21:03 | 27.07428 | -74.02410 | 40065 ft | 430 kts | 246° |
| 2026-05-05 21:03 | 27.04071 | -74.07938 | 40051 ft | 429 kts | 246° |
| 2026-05-05 21:04 | 27.00707 | -74.13470 | 40062 ft | 428 kts | 246° |
| 2026-05-05 21:04 | 26.97375 | -74.18942 | 40064 ft | 427 kts | 246° |
| 2026-05-05 21:05 | 26.94031 | -74.24425 | 40065 ft | 427 kts | 247° |
| 2026-05-05 21:05 | 26.90675 | -74.29935 | 40061 ft | 427 kts | 247° |
| 2026-05-05 21:06 | 26.87489 | -74.35497 | 40063 ft | 426 kts | 249° |
| 2026-05-05 21:06 | 26.84330 | -74.41077 | 40058 ft | 426 kts | 249° |
| 2026-05-05 21:07 | 26.81134 | -74.46678 | 40066 ft | 428 kts | 249° |
| 2026-05-05 21:07 | 26.77911 | -74.52309 | 40054 ft | 431 kts | 249° |
| 2026-05-05 21:08 | 26.74707 | -74.57889 | 40062 ft | 430 kts | 249° |
| 2026-05-05 21:08 | 26.71468 | -74.63529 | 40054 ft | 431 kts | 249° |
| 2026-05-05 21:09 | 26.68331 | -74.69209 | 40062 ft | 425 kts | 253° |
| 2026-05-05 21:09 | 26.66020 | -74.75131 | 40054 ft | 413 kts | 261° |
| 2026-05-05 21:10 | 26.64612 | -74.81257 | 40055 ft | 402 kts | 269° |
| 2026-05-05 21:10 | 26.64086 | -74.87376 | 40054 ft | 391 kts | 277° |
| 2026-05-05 21:11 | 26.64098 | -74.93396 | 40048 ft | 390 kts | 278° |
| 2026-05-05 21:11 | 26.64134 | -74.99440 | 40054 ft | 391 kts | 278° |
| 2026-05-05 21:12 | 26.64175 | -75.05510 | 40048 ft | 390 kts | 278° |
| 2026-05-05 21:12 | 26.64207 | -75.11509 | 40049 ft | 390 kts | 278° |
| 2026-05-05 21:13 | 26.64240 | -75.17563 | 40048 ft | 392 kts | 278° |
| 2026-05-05 21:13 | 26.64274 | -75.23663 | 40050 ft | 391 kts | 278° |
| 2026-05-05 21:14 | 26.64305 | -75.29713 | 40047 ft | 391 kts | 278° |
| 2026-05-05 21:14 | 26.64331 | -75.35757 | 40047 ft | 389 kts | 278° |
| 2026-05-05 21:15 | 26.64353 | -75.41814 | 40044 ft | 391 kts | 278° |
| 2026-05-05 21:15 | 26.64379 | -75.47877 | 40050 ft | 392 kts | 278° |
| 2026-05-05 21:16 | 26.64399 | -75.53944 | 40045 ft | 392 kts | 278° |
| 2026-05-05 21:16 | 26.64415 | -75.60010 | 40048 ft | 391 kts | 278° |
| 2026-05-05 21:17 | 26.64430 | -75.66087 | 40054 ft | 392 kts | 277° |
| 2026-05-05 21:17 | 26.64440 | -75.72191 | 40047 ft | 394 kts | 278° |
| 2026-05-05 21:18 | 26.64451 | -75.78270 | 40050 ft | 394 kts | 278° |
| 2026-05-05 21:18 | 26.64457 | -75.84221 | 40048 ft | 392 kts | 278° |
| 2026-05-05 21:19 | 26.64459 | -75.90292 | 40050 ft | 393 kts | 278° |
| 2026-05-05 21:19 | 26.64461 | -75.96371 | 40043 ft | 393 kts | 278° |
| 2026-05-05 21:20 | 26.64459 | -76.02482 | 40044 ft | 393 kts | 277° |
| 2026-05-05 21:20 | 26.64454 | -76.08553 | 40038 ft | 394 kts | 278° |
| 2026-05-05 21:21 | 26.64447 | -76.14636 | 40027 ft | 392 kts | 278° |
| 2026-05-05 21:21 | 26.64440 | -76.20705 | 40022 ft | 392 kts | 278° |
| 2026-05-05 21:22 | 26.64429 | -76.26803 | 40025 ft | 393 kts | 278° |
| 2026-05-05 21:22 | 26.64414 | -76.32873 | 40028 ft | 393 kts | 277° |
| 2026-05-05 21:23 | 26.64398 | -76.38979 | 40028 ft | 393 kts | 277° |
| 2026-05-05 21:23 | 26.64376 | -76.45084 | 40025 ft | 393 kts | 278° |
| 2026-05-05 21:24 | 26.64355 | -76.51191 | 40020 ft | 393 kts | 278° |
| 2026-05-05 21:24 | 26.64329 | -76.57301 | 40019 ft | 394 kts | 278° |
| 2026-05-05 21:25 | 26.64301 | -76.63395 | 40019 ft | 394 kts | 277° |
| 2026-05-05 21:25 | 26.64271 | -76.69512 | 40018 ft | 395 kts | 277° |
| 2026-05-05 21:26 | 26.64238 | -76.75609 | 40014 ft | 395 kts | 277° |
| 2026-05-05 21:26 | 26.64201 | -76.81738 | 40012 ft | 396 kts | 277° |
| 2026-05-05 21:27 | 26.64160 | -76.87878 | 40013 ft | 396 kts | 277° |
| 2026-05-05 21:27 | 26.64117 | -76.94026 | 40008 ft | 396 kts | 277° |
| 2026-05-05 21:28 | 26.64070 | -77.00125 | 40005 ft | 396 kts | 276° |
| 2026-05-05 21:28 | 26.63833 | -77.06297 | 39999 ft | 398 kts | 275° |
| 2026-05-05 21:29 | 26.63569 | -77.12447 | 39996 ft | 397 kts | 275° |
| 2026-05-05 21:29 | 26.63301 | -77.18570 | 40000 ft | 397 kts | 275° |
| 2026-05-05 21:30 | 26.63026 | -77.24759 | 39988 ft | 398 kts | 275° |
| 2026-05-05 21:30 | 26.62748 | -77.30904 | 40001 ft | 399 kts | 275° |
| 2026-05-05 21:31 | 26.62471 | -77.37052 | 39990 ft | 397 kts | 275° |
| 2026-05-05 21:31 | 26.62187 | -77.43234 | 39996 ft | 398 kts | 275° |
| 2026-05-05 21:32 | 26.61900 | -77.49407 | 39994 ft | 399 kts | 275° |
| 2026-05-05 21:32 | 26.61611 | -77.55563 | 39991 ft | 398 kts | 275° |
| 2026-05-05 21:33 | 26.61318 | -77.61734 | 39991 ft | 398 kts | 275° |
| 2026-05-05 21:33 | 26.61027 | -77.67856 | 39988 ft | 398 kts | 275° |
| 2026-05-05 21:34 | 26.60720 | -77.74047 | 39996 ft | 399 kts | 275° |
| 2026-05-05 21:34 | 26.60408 | -77.80217 | 39988 ft | 399 kts | 274° |
| 2026-05-05 21:35 | 26.60089 | -77.86388 | 40003 ft | 398 kts | 274° |
| 2026-05-05 21:35 | 26.59768 | -77.92517 | 39995 ft | 399 kts | 274° |
| 2026-05-05 21:36 | 26.59445 | -77.98688 | 39999 ft | 398 kts | 274° |
| 2026-05-05 21:36 | 26.59121 | -78.04840 | 39620 ft | 398 kts | 274° |
| 2026-05-05 21:37 | 26.58955 | -78.07912 | 39277 ft | 396 kts | 274° |
| 2026-05-05 21:37 | 26.58789 | -78.10967 | 38951 ft | 393 kts | 274° |
| 2026-05-05 21:37 | 26.58626 | -78.14014 | 38638 ft | 391 kts | 274° |
| 2026-05-05 21:37 | 26.58464 | -78.17019 | 38342 ft | 391 kts | 274° |
| 2026-05-05 21:38 | 26.58302 | -78.20029 | 38037 ft | 392 kts | 274° |
| 2026-05-05 21:38 | 26.58135 | -78.23088 | 37710 ft | 393 kts | 274° |
| 2026-05-05 21:38 | 26.57970 | -78.26123 | 37299 ft | 394 kts | 274° |
| 2026-05-05 21:38 | 26.57803 | -78.29166 | 36805 ft | 394 kts | 274° |
| 2026-05-05 21:39 | 26.57636 | -78.32198 | 36279 ft | 394 kts | 274° |
| 2026-05-05 21:39 | 26.57469 | -78.35235 | 35731 ft | 394 kts | 274° |
| 2026-05-05 21:39 | 26.57296 | -78.38310 | 35167 ft | 395 kts | 273° |
| 2026-05-05 21:39 | 26.57127 | -78.41343 | 34603 ft | 394 kts | 273° |
| 2026-05-05 21:40 | 26.56965 | -78.44370 | 34017 ft | 394 kts | 274° |
| 2026-05-05 21:40 | 26.56812 | -78.47451 | 33348 ft | 395 kts | 274° |
| 2026-05-05 21:40 | 26.56664 | -78.50507 | 32766 ft | 395 kts | 274° |
| 2026-05-05 21:40 | 26.56518 | -78.53537 | 32196 ft | 396 kts | 273° |
| 2026-05-05 21:41 | 26.56366 | -78.56570 | 31767 ft | 393 kts | 273° |
| 2026-05-05 21:41 | 26.56214 | -78.59601 | 31318 ft | 390 kts | 272° |
| 2026-05-05 21:41 | 26.56059 | -78.62621 | 30917 ft | 387 kts | 272° |
| 2026-05-05 21:41 | 26.55906 | -78.65584 | 30540 ft | 383 kts | 272° |
| 2026-05-05 21:42 | 26.55755 | -78.68541 | 30175 ft | 380 kts | 271° |
| 2026-05-05 21:42 | 26.55603 | -78.71474 | 29821 ft | 377 kts | 271° |
| 2026-05-05 21:42 | 26.55453 | -78.74371 | 29473 ft | 374 kts | 271° |
| 2026-05-05 21:42 | 26.55302 | -78.77254 | 29122 ft | 372 kts | 271° |
| 2026-05-05 21:43 | 26.55153 | -78.80108 | 28771 ft | 370 kts | 271° |
| 2026-05-05 21:43 | 26.55001 | -78.82988 | 28423 ft | 368 kts | 271° |
| 2026-05-05 21:43 | 26.54852 | -78.85803 | 28075 ft | 366 kts | 270° |
| 2026-05-05 21:43 | 26.54701 | -78.88620 | 27719 ft | 364 kts | 271° |
| 2026-05-05 21:44 | 26.54549 | -78.91460 | 27360 ft | 363 kts | 270° |
| 2026-05-05 21:44 | 26.54402 | -78.94244 | 27010 ft | 361 kts | 270° |
| 2026-05-05 21:44 | 26.54252 | -78.97019 | 26654 ft | 359 kts | 270° |
| 2026-05-05 21:44 | 26.54105 | -78.99781 | 26303 ft | 357 kts | 271° |
| 2026-05-05 21:45 | 26.54029 | -79.02541 | 25933 ft | 355 kts | 273° |
| 2026-05-05 21:45 | 26.54032 | -79.05286 | 25525 ft | 353 kts | 273° |
| 2026-05-05 21:45 | 26.54034 | -79.07994 | 25156 ft | 351 kts | 274° |
| 2026-05-05 21:45 | 26.54036 | -79.10707 | 24791 ft | 349 kts | 273° |
| 2026-05-05 21:46 | 26.54038 | -79.13412 | 24425 ft | 347 kts | 274° |
| 2026-05-05 21:46 | 26.54040 | -79.16073 | 24069 ft | 346 kts | 273° |
| 2026-05-05 21:46 | 26.54040 | -79.18760 | 23705 ft | 345 kts | 273° |
| 2026-05-05 21:46 | 26.54040 | -79.21426 | 23351 ft | 343 kts | 273° |
| 2026-05-05 21:47 | 26.54039 | -79.24068 | 22998 ft | 342 kts | 273° |
| 2026-05-05 21:47 | 26.54040 | -79.26695 | 22645 ft | 340 kts | 273° |
| 2026-05-05 21:47 | 26.54039 | -79.29328 | 22306 ft | 339 kts | 273° |
| 2026-05-05 21:47 | 26.54034 | -79.31981 | 21955 ft | 338 kts | 273° |
| 2026-05-05 21:48 | 26.54032 | -79.34566 | 21605 ft | 337 kts | 273° |
| 2026-05-05 21:48 | 26.54029 | -79.37170 | 21249 ft | 337 kts | 273° |
| 2026-05-05 21:48 | 26.54025 | -79.39793 | 20886 ft | 336 kts | 272° |
| 2026-05-05 21:48 | 26.54021 | -79.42363 | 20532 ft | 335 kts | 273° |
| 2026-05-05 21:49 | 26.54016 | -79.44981 | 20170 ft | 334 kts | 273° |
| 2026-05-05 21:49 | 26.54012 | -79.47547 | 19808 ft | 334 kts | 272° |
| 2026-05-05 21:49 | 26.54006 | -79.50133 | 19443 ft | 333 kts | 272° |
| 2026-05-05 21:49 | 26.53948 | -79.52721 | 19104 ft | 333 kts | 267° |
| 2026-05-05 21:50 | 26.53525 | -79.55242 | 18999 ft | 331 kts | 258° |
| 2026-05-05 21:50 | 26.52733 | -79.57674 | 18655 ft | 338 kts | 249° |
| 2026-05-05 21:50 | 26.51675 | -79.60020 | 18168 ft | 342 kts | 246° |
| 2026-05-05 21:50 | 26.50559 | -79.62377 | 17730 ft | 344 kts | 246° |
| 2026-05-05 21:51 | 26.49447 | -79.64716 | 17312 ft | 344 kts | 246° |
| 2026-05-05 21:51 | 26.48333 | -79.67075 | 16902 ft | 345 kts | 246° |
| 2026-05-05 21:51 | 26.47208 | -79.69467 | 16490 ft | 344 kts | 245° |
| 2026-05-05 21:51 | 26.45990 | -79.71767 | 16085 ft | 346 kts | 239° |
| 2026-05-05 21:52 | 26.42955 | -79.75941 | 15792 ft | 350 kts | 231° |
| 2026-05-05 21:52 | 26.41311 | -79.77939 | 15800 ft | 352 kts | 231° |
| 2026-05-05 21:52 | 26.39657 | -79.79945 | 15505 ft | 353 kts | 232° |
| 2026-05-05 21:53 | 26.38084 | -79.82059 | 15118 ft | 351 kts | 236° |
| 2026-05-05 21:53 | 26.36668 | -79.84241 | 14748 ft | 346 kts | 238° |
| 2026-05-05 21:53 | 26.35306 | -79.86414 | 14690 ft | 334 kts | 238° |
| 2026-05-05 21:53 | 26.34009 | -79.88487 | 14667 ft | 321 kts | 238° |
| 2026-05-05 21:54 | 26.32755 | -79.90493 | 14633 ft | 309 kts | 238° |
| 2026-05-05 21:54 | 26.31544 | -79.92429 | 14420 ft | 305 kts | 239° |
| 2026-05-05 21:54 | 26.30336 | -79.94365 | 14108 ft | 304 kts | 238° |
| 2026-05-05 21:54 | 26.29126 | -79.96299 | 13813 ft | 302 kts | 238° |
| 2026-05-05 21:55 | 26.27936 | -79.98199 | 13527 ft | 300 kts | 238° |
| 2026-05-05 21:55 | 26.26751 | -80.00085 | 13244 ft | 298 kts | 237° |
| 2026-05-05 21:55 | 26.25285 | -80.01773 | 12932 ft | 303 kts | 217° |
| 2026-05-05 21:55 | 26.23355 | -80.02728 | 12640 ft | 308 kts | 197° |
| 2026-05-05 21:56 | 26.21256 | -80.03218 | 12373 ft | 307 kts | 194° |
| 2026-05-05 21:56 | 26.19176 | -80.03661 | 12105 ft | 305 kts | 194° |
| 2026-05-05 21:56 | 26.17079 | -80.04112 | 11834 ft | 303 kts | 194° |
| 2026-05-05 21:56 | 26.15040 | -80.04562 | 11565 ft | 301 kts | 194° |
| 2026-05-05 21:57 | 26.12982 | -80.05026 | 11291 ft | 300 kts | 194° |
| 2026-05-05 21:57 | 26.10928 | -80.05492 | 11040 ft | 297 kts | 195° |
| 2026-05-05 21:57 | 26.08946 | -80.05942 | 10974 ft | 287 kts | 195° |
| 2026-05-05 21:57 | 26.07000 | -80.06383 | 10977 ft | 284 kts | 195° |
| 2026-05-05 21:58 | 26.05038 | -80.06873 | 10965 ft | 297 kts | 197° |
| 2026-05-05 21:58 | 26.03012 | -80.07408 | 10931 ft | 298 kts | 197° |
| 2026-05-05 21:58 | 26.00978 | -80.07944 | 10681 ft | 297 kts | 197° |
| 2026-05-05 21:58 | 25.98974 | -80.08469 | 10362 ft | 297 kts | 197° |
| 2026-05-05 21:59 | 25.96958 | -80.08993 | 10088 ft | 296 kts | 197° |
| 2026-05-05 21:59 | 25.94949 | -80.09517 | 9825 ft | 294 kts | 196° |
| 2026-05-05 21:59 | 25.92987 | -80.10090 | 9550 ft | 290 kts | 206° |
| 2026-05-05 21:59 | 25.91328 | -80.11291 | 9257 ft | 283 kts | 228° |
| 2026-05-05 22:00 | 25.90000 | -80.12903 | 8996 ft | 280 kts | 231° |
| 2026-05-05 22:00 | 25.88736 | -80.14520 | 8716 ft | 279 kts | 234° |
| 2026-05-05 22:00 | 25.87908 | -80.16415 | 8484 ft | 271 kts | 261° |
| 2026-05-05 22:00 | 25.87810 | -80.18498 | 8302 ft | 266 kts | 271° |
| 2026-05-05 22:01 | 25.87794 | -80.20534 | 8126 ft | 262 kts | 270° |
| 2026-05-05 22:01 | 25.87754 | -80.22526 | 7949 ft | 258 kts | 269° |
| 2026-05-05 22:01 | 25.87700 | -80.24513 | 7773 ft | 254 kts | 269° |
| 2026-05-05 22:01 | 25.87641 | -80.26447 | 7602 ft | 251 kts | 269° |
| 2026-05-05 22:02 | 25.87614 | -80.28386 | 7424 ft | 247 kts | 277° |
| 2026-05-05 22:02 | 25.88089 | -80.30181 | 7250 ft | 242 kts | 296° |
| 2026-05-05 22:02 | 25.88871 | -80.31804 | 7097 ft | 239 kts | 299° |
| 2026-05-05 22:02 | 25.89670 | -80.33401 | 6783 ft | 235 kts | 299° |
| 2026-05-05 22:03 | 25.90460 | -80.34991 | 6423 ft | 229 kts | 299° |
| 2026-05-05 22:03 | 25.91212 | -80.36516 | 6114 ft | 222 kts | 299° |
| 2026-05-05 22:03 | 25.91942 | -80.38009 | 5892 ft | 218 kts | 298° |
| 2026-05-05 22:03 | 25.92651 | -80.39461 | 5721 ft | 214 kts | 299° |
| 2026-05-05 22:04 | 25.93146 | -80.41005 | 5512 ft | 213 kts | 269° |
| 2026-05-05 22:04 | 25.92650 | -80.42524 | 5228 ft | 214 kts | 226° |
| 2026-05-05 22:04 | 25.91391 | -80.43381 | 4904 ft | 214 kts | 202° |
| 2026-05-05 22:04 | 25.89973 | -80.43937 | 4456 ft | 223 kts | 200° |
| 2026-05-05 22:05 | 25.88438 | -80.44347 | 3891 ft | 231 kts | 177° |
| 2026-05-05 22:05 | 25.86901 | -80.43852 | 3261 ft | 239 kts | 144° |
| 2026-05-05 22:05 | 25.85799 | -80.42499 | 2579 ft | 241 kts | 115° |
| 2026-05-05 22:05 | 25.85127 | -80.40839 | 2072 ft | 229 kts | 111° |
| 2026-05-05 22:06 | 25.84495 | -80.39292 | 1757 ft | 213 kts | 113° |
| 2026-05-05 22:06 | 25.83848 | -80.37875 | 1495 ft | 200 kts | 116° |
| 2026-05-05 22:06 | 25.83180 | -80.36568 | 1271 ft | 187 kts | 117° |
| 2026-05-05 22:06 | 25.82556 | -80.35368 | 1047 ft | 176 kts | 117° |
| 2026-05-05 22:07 | 25.81963 | -80.34216 | 816 ft | 167 kts | 116° |
| 2026-05-05 22:07 | 25.81397 | -80.33108 | 616 ft | 158 kts | 117° |
| 2026-05-05 22:07 | 25.80870 | -80.32072 | 418 ft | 151 kts | 117° |
| 2026-05-05 22:07 | 25.80369 | -80.31089 | 232 ft | 145 kts | 117° |
| 2026-05-05 22:08 | 25.79877 | -80.30120 | 45 ft | 139 kts | 117° |
| 2026-05-05 22:08 | 25.79433 | -80.29251 | 22 ft | 115 kts | 118° |
| 2026-05-05 22:08 | 25.79112 | -80.28622 | 22 ft | 68 kts | 120° |
| 2026-05-05 22:08 | 25.78958 | -80.28323 | 22 ft | 30 kts | 119° |
| 2026-05-05 22:09 | 25.78906 | -80.28130 | 22 ft | 22 kts | 93° |
| 2026-05-05 22:09 | 25.78899 | -80.27999 | 22 ft | 15 kts | 115° |
| 2026-05-05 22:09 | 25.78861 | -80.27912 | 22 ft | 11 kts | 99° |
| 2026-05-05 22:09 | 25.78867 | -80.27822 | 22 ft | 12 kts | 79° |
| 2026-05-05 22:10 | 25.78878 | -80.27727 | 22 ft | 12 kts | 86° |
| 2026-05-05 22:10 | 25.78887 | -80.27626 | 22 ft | 13 kts | 80° |
| 2026-05-05 22:10 | 25.78906 | -80.27523 | 22 ft | 14 kts | 78° |
| 2026-05-05 22:10 | 25.78922 | -80.27413 | 22 ft | 14 kts | 86° |
| 2026-05-05 22:11 | 25.78928 | -80.27312 | 22 ft | 10 kts | 77° |
| 2026-05-05 22:11 | 25.78964 | -80.27258 | 22 ft | 6 kts | 21° |
| 2026-05-05 22:11 | 25.79002 | -80.27270 | 22 ft | 4 kts | 325° |
| 2026-05-05 22:11 | 25.79022 | -80.27289 | 22 ft | 3 kts | 319° |
| 2026-05-05 22:12 | 25.79029 | -80.27296 | 22 ft | 0 kts | 316° |